Observation data for Sweetwater on 10/17/2020      Previous  Date  Next       Current Mesonet Observations  Soil Data  Daily Summary Page  Observations in Plain Language
KSW1 170500Z 15012KT 14/M02 A3018 RMK A01 T01351015  RH  035%=      5-min Rain = 0
KSW1 170501Z 14012KT 14/M02 A3018 RMK A01 T01351015  RH  036%=      5-min Rain = 0
KSW1 170502Z 15014KT 14/M02 A3018 RMK A01 T01351015  RH  035%=      5-min Rain = 0
KSW1 170503Z 15011KT 14/M02 A3018 RMK A01 T01361015  RH  035%=      5-min Rain = 0
KSW1 170504Z 15012KT 14/M02 A3018 RMK A01 T01361015  RH  035%=      5-min Rain = 0
KSW1 170505Z 15010KT 14/M01 A3018 RMK A01 T01351014  RH  035%=      5-min Rain = 0
KSW1 170506Z 15012KT 14/M02 A3018 RMK A01 T01351015  RH  036%=      5-min Rain = 0
KSW1 170507Z 15012G18KT 13/M02 A3018 RMK A01 T01341015  RH  035%=      5-min Rain = 0
KSW1 170508Z 15014KT 14/M02 A3018 RMK A01 T01351015  RH  035%=      5-min Rain = 0
KSW1 170509Z 15012KT 14/M02 A3018 RMK A01 T01351015  RH  035%=      5-min Rain = 0
KSW1 170510Z 15010KT 14/M02 A3018 RMK A01 T01351015  RH  035%=      5-min Rain = 0
KSW1 170511Z 15011KT 14/M02 A3018 RMK A01 T01351015  RH  035%=      5-min Rain = 0
KSW1 170512Z 15013KT 14/M02 A3018 RMK A01 T01351015  RH  035%=      5-min Rain = 0
KSW1 170513Z 15014KT 14/M02 A3018 RMK A01 T01351015  RH  035%=      5-min Rain = 0
KSW1 170514Z 15013KT 14/M02 A3018 RMK A01 T01361015  RH  035%=      5-min Rain = 0
KSW1 170515Z 15013KT 14/M02 A3018 RMK A01 T01361015  RH  035%=      5-min Rain = 0
KSW1 170516Z 15012KT 14/M02 A3018 RMK A01 T01361015  RH  035%=      5-min Rain = 0
KSW1 170517Z 15010G15KT 14/M02 A3018 RMK A01 T01361015  RH  035%=      5-min Rain = 0
KSW1 170518Z 15013KT 14/M02 A3018 RMK A01 T01351015  RH  035%=      5-min Rain = 0
KSW1 170519Z 15012KT 14/M02 A3018 RMK A01 T01351015  RH  035%=      5-min Rain = 0
KSW1 170520Z 15010KT 14/M02 A3017 RMK A01 T01351015  RH  036%=      5-min Rain = 0
KSW1 170521Z 15010KT 13/M02 A3017 RMK A01 T01341015  RH  036%=      5-min Rain = 0
KSW1 170522Z 15012KT 13/M02 A3018 RMK A01 T01331015  RH  036%=      5-min Rain = 0
KSW1 170523Z 15010KT 13/M02 A3017 RMK A01 T01331015  RH  036%=      5-min Rain = 0
KSW1 170524Z 15010KT 13/M02 A3017 RMK A01 T01321015  RH  036%=      5-min Rain = 0
KSW1 170525Z 15010KT 13/M02 A3017 RMK A01 T01321015  RH  036%=      5-min Rain = 0
KSW1 170526Z 15011KT 13/M02 A3017 RMK A01 T01321015  RH  036%=      5-min Rain = 0
KSW1 170527Z 15009KT 13/M02 A3017 RMK A01 T01321015  RH  036%=      5-min Rain = 0
KSW1 170528Z 15011KT 13/M02 A3017 RMK A01 T01311015  RH  036%=      5-min Rain = 0
KSW1 170529Z 15010KT 13/M02 A3017 RMK A01 T01321015  RH  036%=      5-min Rain = 0
KSW1 170530Z 16009KT 13/M02 A3017 RMK A01 T01311015  RH  036%=      5-min Rain = 0
KSW1 170531Z 15010KT 13/M02 A3017 RMK A01 T01301015  RH  037%=      5-min Rain = 0
KSW1 170532Z 15010KT 13/M02 A3017 RMK A01 T01301015  RH  037%=      5-min Rain = 0
KSW1 170533Z 15009KT 13/M02 A3017 RMK A01 T01291015  RH  037%=      5-min Rain = 0
KSW1 170534Z 16010KT 13/M02 A3017 RMK A01 T01281015  RH  037%=      5-min Rain = 0
KSW1 170535Z 16009KT 13/M02 A3017 RMK A01 T01281015  RH  037%=      5-min Rain = 0
KSW1 170536Z 16010G15KT 13/M02 A3017 RMK A01 T01271015  RH  037%=      5-min Rain = 0
KSW1 170537Z 16009KT 13/M02 A3017 RMK A01 T01271015  RH  037%=      5-min Rain = 0
KSW1 170538Z 16010KT 13/M02 A3017 RMK A01 T01271015  RH  037%=      5-min Rain = 0
KSW1 170539Z 16009KT 13/M01 A3017 RMK A01 T01281014  RH  037%=      5-min Rain = 0
KSW1 170540Z 16010KT 13/M02 A3017 RMK A01 T01281015  RH  037%=      5-min Rain = 0
KSW1 170541Z 16010KT 13/M01 A3017 RMK A01 T01281014  RH  037%=      5-min Rain = 0
KSW1 170542Z 15010KT 13/M01 A3017 RMK A01 T01271014  RH  037%=      5-min Rain = 0
KSW1 170543Z 16009KT 13/M01 A3017 RMK A01 T01271014  RH  038%=      5-min Rain = 0
KSW1 170544Z 16011KT 13/M01 A3017 RMK A01 T01261014  RH  038%=      5-min Rain = 0
KSW1 170545Z 16010KT 13/M01 A3016 RMK A01 T01271014  RH  038%=      5-min Rain = 0
KSW1 170546Z 16009KT 13/M01 A3016 RMK A01 T01271014  RH  038%=      5-min Rain = 0
KSW1 170547Z 16009KT 13/M01 A3016 RMK A01 T01271014  RH  038%=      5-min Rain = 0
KSW1 170548Z 16011KT 13/M01 A3016 RMK A01 T01261014  RH  038%=      5-min Rain = 0
KSW1 170549Z 16011KT 13/M01 A3016 RMK A01 T01261014  RH  038%=      5-min Rain = 0
KSW1 170550Z 16011KT 13/M01 A3016 RMK A01 T01261014  RH  038%=      5-min Rain = 0
KSW1 170551Z 16010KT 13/M01 A3016 RMK A01 T01261014  RH  038%=      5-min Rain = 0
KSW1 170552Z 16010KT 13/M01 A3016 RMK A01 T01261014  RH  038%=      5-min Rain = 0
KSW1 170553Z 16010KT 13/M01 A3016 RMK A01 T01261014  RH  038%=      5-min Rain = 0
KSW1 170554Z 15011KT 13/M01 A3016 RMK A01 T01261014  RH  038%=      5-min Rain = 0
KSW1 170555Z 15012KT 13/M01 A3016 RMK A01 T01261014  RH  038%=      5-min Rain = 0
KSW1 170556Z 16010KT 13/M01 A3016 RMK A01 T01261014  RH  038%=      5-min Rain = 0
KSW1 170557Z 16009KT 13/M01 A3016 RMK A01 T01261014  RH  038%=      5-min Rain = 0
KSW1 170558Z 16011KT 13/M01 A3016 RMK A01 T01261014  RH  038%=      5-min Rain = 0
KSW1 170559Z 16011KT 13/M02 A3016 RMK A01 T01251015  RH  038%=      5-min Rain = 0
KSW1 170600Z 16010KT 13/M02 A3016 RMK A01 T01261015  RH  038%=      5-min Rain = 0
KSW1 170601Z 16012KT 13/M02 A3016 RMK A01 T01261015  RH  038%=      5-min Rain = 0
KSW1 170602Z 16014KT 13/M02 A3016 RMK A01 T01261015  RH  037%=      5-min Rain = 0
KSW1 170603Z 16012KT 13/M02 A3016 RMK A01 T01271015  RH  037%=      5-min Rain = 0
KSW1 170604Z 16011G16KT 13/M02 A3016 RMK A01 T01271015  RH  037%=      5-min Rain = 0
KSW1 170605Z 16013KT 13/M02 A3016 RMK A01 T01271015  RH  037%=      5-min Rain = 0
KSW1 170606Z 16013KT 13/M02 A3016 RMK A01 T01271015  RH  037%=      5-min Rain = 0
KSW1 170607Z 16013KT 13/M02 A3016 RMK A01 T01271015  RH  037%=      5-min Rain = 0
KSW1 170608Z 16015KT 13/M02 A3015 RMK A01 T01271015  RH  037%=      5-min Rain = 0
KSW1 170609Z 16014KT 13/M02 A3015 RMK A01 T01281015  RH  037%=      5-min Rain = 0
KSW1 170610Z 16014KT 13/M02 A3015 RMK A01 T01291015  RH  037%=      5-min Rain = 0
KSW1 170611Z 16014KT 13/M02 A3015 RMK A01 T01291015  RH  037%=      5-min Rain = 0
KSW1 170612Z 16014KT 13/M02 A3015 RMK A01 T01291015  RH  037%=      5-min Rain = 0
KSW1 170613Z 15012KT 13/M02 A3015 RMK A01 T01291015  RH  037%=      5-min Rain = 0
KSW1 170614Z 16013KT 13/M02 A3015 RMK A01 T01291015  RH  037%=      5-min Rain = 0
KSW1 170615Z 16014KT 13/M02 A3015 RMK A01 T01281015  RH  037%=      5-min Rain = 0
KSW1 170616Z 16012KT 13/M01 A3015 RMK A01 T01281014  RH  037%=      5-min Rain = 0
KSW1 170617Z 16013KT 13/M02 A3015 RMK A01 T01281015  RH  037%=      5-min Rain = 0
KSW1 170618Z 16012G17KT 13/M02 A3015 RMK A01 T01281015  RH  037%=      5-min Rain = 0
KSW1 170619Z 16014KT 13/M01 A3015 RMK A01 T01281014  RH  037%=      5-min Rain = 0
KSW1 170620Z 16012KT 13/M01 A3015 RMK A01 T01281014  RH  037%=      5-min Rain = 0
KSW1 170621Z 16012KT 13/M01 A3015 RMK A01 T01281014  RH  037%=      5-min Rain = 0
KSW1 170622Z 16013G18KT 13/M01 A3015 RMK A01 T01271014  RH  037%=      5-min Rain = 0
KSW1 170623Z 16015KT 13/M01 A3015 RMK A01 T01271014  RH  037%=      5-min Rain = 0
KSW1 170624Z 16014KT 13/M02 A3015 RMK A01 T01281015  RH  037%=      5-min Rain = 0
KSW1 170625Z 15014KT 13/M02 A3015 RMK A01 T01291015  RH  037%=      5-min Rain = 0
KSW1 170626Z 16014KT 13/M02 A3015 RMK A01 T01291015  RH  037%=      5-min Rain = 0
KSW1 170627Z 16013KT 13/M02 A3015 RMK A01 T01291015  RH  037%=      5-min Rain = 0
KSW1 170628Z 16012KT 13/M02 A3015 RMK A01 T01281015  RH  037%=      5-min Rain = 0
KSW1 170629Z 16012KT 13/M02 A3015 RMK A01 T01281015  RH  037%=      5-min Rain = 0
KSW1 170630Z 16012KT 13/M02 A3015 RMK A01 T01271015  RH  037%=      5-min Rain = 0
KSW1 170631Z 16011KT 13/M02 A3015 RMK A01 T01271015  RH  037%=      5-min Rain = 0
KSW1 170632Z 16011KT 13/M02 A3015 RMK A01 T01261015  RH  038%=      5-min Rain = 0
KSW1 170633Z 16009KT 13/M02 A3015 RMK A01 T01251015  RH  038%=      5-min Rain = 0
KSW1 170634Z 16012KT 13/M02 A3014 RMK A01 T01251015  RH  038%=      5-min Rain = 0
KSW1 170635Z 16012KT 12/M02 A3014 RMK A01 T01241016  RH  038%=      5-min Rain = 0
KSW1 170636Z 16012KT 13/M02 A3014 RMK A01 T01251015  RH  038%=      5-min Rain = 0
KSW1 170637Z 16012KT 13/M02 A3014 RMK A01 T01251016  RH  038%=      5-min Rain = 0
KSW1 170638Z 16014KT 13/M02 A3014 RMK A01 T01261016  RH  037%=      5-min Rain = 0
KSW1 170639Z 16014G21KT 13/M02 A3014 RMK A01 T01271017  RH  037%=      5-min Rain = 0
KSW1 170640Z 16014KT 13/M02 A3014 RMK A01 T01281016  RH  037%=      5-min Rain = 0
KSW1 170641Z 16013KT 13/M02 A3014 RMK A01 T01291016  RH  037%=      5-min Rain = 0
KSW1 170642Z 16011KT 13/M02 A3014 RMK A01 T01291016  RH  037%=      5-min Rain = 0
KSW1 170643Z 16012G17KT 13/M02 A3014 RMK A01 T01281016  RH  037%=      5-min Rain = 0
KSW1 170644Z 16012KT 13/M02 A3014 RMK A01 T01281016  RH  037%=      5-min Rain = 0
KSW1 170645Z 16012KT 13/M02 A3014 RMK A01 T01281017  RH  037%=      5-min Rain = 0
KSW1 170646Z 16014KT 13/M02 A3014 RMK A01 T01291016  RH  037%=      5-min Rain = 0
KSW1 170647Z 16013KT 13/M02 A3014 RMK A01 T01291017  RH  036%=      5-min Rain = 0
KSW1 170648Z 16015KT 13/M02 A3014 RMK A01 T01301017  RH  036%=      5-min Rain = 0
KSW1 170649Z 16013KT 13/M02 A3014 RMK A01 T01301017  RH  036%=      5-min Rain = 0
KSW1 170650Z 16012KT 13/M02 A3014 RMK A01 T01311016  RH  036%=      5-min Rain = 0
KSW1 170651Z 16012KT 13/M02 A3014 RMK A01 T01301016  RH  036%=      5-min Rain = 0
KSW1 170652Z 16012KT 13/M02 A3014 RMK A01 T01301016  RH  036%=      5-min Rain = 0
KSW1 170653Z 16012KT 13/M02 A3014 RMK A01 T01291016  RH  037%=      5-min Rain = 0
KSW1 170654Z 16011KT 13/M02 A3014 RMK A01 T01291016  RH  037%=      5-min Rain = 0
KSW1 170655Z 16012KT 13/M02 A3014 RMK A01 T01291016  RH  037%=      5-min Rain = 0
KSW1 170656Z 16013KT 13/M02 A3014 RMK A01 T01291016  RH  037%=      5-min Rain = 0
KSW1 170657Z 16011KT 13/M02 A3014 RMK A01 T01281016  RH  037%=      5-min Rain = 0
KSW1 170658Z 16013KT 13/M02 A3014 RMK A01 T01281016  RH  037%=      5-min Rain = 0
KSW1 170659Z 16013KT 13/M02 A3014 RMK A01 T01281016  RH  037%=      5-min Rain = 0
KSW1 170700Z 16012KT 13/M02 A3014 RMK A01 T01291016  RH  037%=      5-min Rain = 0
KSW1 170701Z 16012KT 13/M02 A3013 RMK A01 T01291016  RH  037%=      5-min Rain = 0
KSW1 170702Z 16012KT 13/M02 A3013 RMK A01 T01281016  RH  037%=      5-min Rain = 0
KSW1 170703Z 16011KT 13/M02 A3013 RMK A01 T01281016  RH  037%=      5-min Rain = 0
KSW1 170704Z 17011G16KT 13/M02 A3013 RMK A01 T01281016  RH  037%=      5-min Rain = 0
KSW1 170705Z 16011KT 13/M02 A3013 RMK A01 T01271016  RH  037%=      5-min Rain = 0
KSW1 170706Z 16013KT 13/M02 A3013 RMK A01 T01281016  RH  037%=      5-min Rain = 0
KSW1 170707Z 16015KT 13/M02 A3013 RMK A01 T01281017  RH  037%=      5-min Rain = 0
KSW1 170708Z 16014KT 13/M02 A3013 RMK A01 T01291017  RH  036%=      5-min Rain = 0
KSW1 170709Z 16016G21KT 13/M02 A3013 RMK A01 T01301017  RH  036%=      5-min Rain = 0
KSW1 170710Z 16012KT 13/M02 A3013 RMK A01 T01301017  RH  036%=      5-min Rain = 0
KSW1 170711Z 16015KT 13/M02 A3013 RMK A01 T01301017  RH  036%=      5-min Rain = 0
KSW1 170712Z 16016KT 13/M02 A3013 RMK A01 T01301017  RH  036%=      5-min Rain = 0
KSW1 170713Z 16017KT 13/M02 A3013 RMK A01 T01311018  RH  036%=      5-min Rain = 0
KSW1 170714Z 16016KT 13/M02 A3013 RMK A01 T01321018  RH  035%=      5-min Rain = 0
KSW1 170715Z 16015KT 13/M02 A3013 RMK A01 T01321018  RH  035%=      5-min Rain = 0
KSW1 170716Z 16015KT 13/M02 A3013 RMK A01 T01321018  RH  035%=      5-min Rain = 0
KSW1 170717Z 16014KT 13/M02 A3013 RMK A01 T01321018  RH  035%=      5-min Rain = 0
KSW1 170718Z 16016KT 13/M02 A3012 RMK A01 T01311018  RH  036%=      5-min Rain = 0
KSW1 170719Z 17016KT 13/M02 A3012 RMK A01 T01311018  RH  036%=      5-min Rain = 0
KSW1 170720Z 16015G20KT 13/M02 A3012 RMK A01 T01321018  RH  035%=      5-min Rain = 0
KSW1 170721Z 16016KT 13/M02 A3012 RMK A01 T01321018  RH  035%=      5-min Rain = 0
KSW1 170722Z 17015KT 13/M02 A3012 RMK A01 T01321018  RH  035%=      5-min Rain = 0
KSW1 170723Z 16012KT 13/M02 A3012 RMK A01 T01321018  RH  036%=      5-min Rain = 0
KSW1 170724Z 17015KT 13/M02 A3012 RMK A01 T01311018  RH  036%=      5-min Rain = 0
KSW1 170725Z 16014KT 13/M02 A3012 RMK A01 T01311018  RH  036%=      5-min Rain = 0
KSW1 170726Z 17014KT 13/M02 A3012 RMK A01 T01311018  RH  036%=      5-min Rain = 0
KSW1 170727Z 17014KT 13/M02 A3012 RMK A01 T01311018  RH  036%=      5-min Rain = 0
KSW1 170728Z 17013KT 13/M02 A3012 RMK A01 T01311018  RH  036%=      5-min Rain = 0
KSW1 170729Z 16016KT 13/M02 A3012 RMK A01 T01311018  RH  036%=      5-min Rain = 0
KSW1 170730Z 17013KT 13/M02 A3012 RMK A01 T01311018  RH  035%=      5-min Rain = 0
KSW1 170731Z 16013KT 13/M02 A3012 RMK A01 T01321018  RH  036%=      5-min Rain = 0
KSW1 170732Z 17014G19KT 13/M02 A3012 RMK A01 T01311017  RH  036%=      5-min Rain = 0
KSW1 170733Z 16014KT 13/M02 A3012 RMK A01 T01311017  RH  036%=      5-min Rain = 0
KSW1 170734Z 16013KT 13/M02 A3012 RMK A01 T01311018  RH  036%=      5-min Rain = 0
KSW1 170735Z 17014KT 13/M02 A3012 RMK A01 T01311017  RH  036%=      5-min Rain = 0
KSW1 170736Z 17017KT 13/M02 A3012 RMK A01 T01311017  RH  036%=      5-min Rain = 0
KSW1 170737Z 17014KT 13/M02 A3012 RMK A01 T01321017  RH  036%=      5-min Rain = 0
KSW1 170738Z 16015KT 13/M02 A3012 RMK A01 T01321017  RH  035%=      5-min Rain = 0
KSW1 170739Z 17014KT 13/M02 A3012 RMK A01 T01331017  RH  035%=      5-min Rain = 0
KSW1 170740Z 17015KT 13/M02 A3012 RMK A01 T01321017  RH  036%=      5-min Rain = 0
KSW1 170741Z 16012KT 13/M02 A3012 RMK A01 T01321016  RH  036%=      5-min Rain = 0
KSW1 170742Z 17014G19KT 13/M02 A3012 RMK A01 T01321016  RH  036%=      5-min Rain = 0
KSW1 170743Z 17018G24KT 13/M02 A3012 RMK A01 T01321016  RH  036%=      5-min Rain = 0
KSW1 170744Z 17014KT 13/M02 A3012 RMK A01 T01331016  RH  036%=      5-min Rain = 0
KSW1 170745Z 17013KT 13/M02 A3012 RMK A01 T01331016  RH  036%=      5-min Rain = 0
KSW1 170746Z 17014G19KT 13/M02 A3012 RMK A01 T01331016  RH  036%=      5-min Rain = 0
KSW1 170747Z 16014KT 13/M02 A3012 RMK A01 T01321016  RH  036%=      5-min Rain = 0
KSW1 170748Z 17018KT 13/M02 A3011 RMK A01 T01321015  RH  036%=      5-min Rain = 0
KSW1 170749Z 17018KT 13/M02 A3011 RMK A01 T01331016  RH  036%=      5-min Rain = 0
KSW1 170750Z 17015G20KT 13/M02 A3011 RMK A01 T01331015  RH  036%=      5-min Rain = 0
KSW1 170751Z 17014KT 13/M02 A3011 RMK A01 T01341015  RH  036%=      5-min Rain = 0
KSW1 170752Z 17016G23KT 13/M02 A3011 RMK A01 T01341015  RH  036%=      5-min Rain = 0
KSW1 170753Z 17016KT 13/M02 A3011 RMK A01 T01341015  RH  036%=      5-min Rain = 0
KSW1 170754Z 17017KT 13/M02 A3011 RMK A01 T01331015  RH  036%=      5-min Rain = 0
KSW1 170755Z 17017KT 13/M02 A3011 RMK A01 T01341015  RH  036%=      5-min Rain = 0
KSW1 170756Z 17017KT 13/M02 A3011 RMK A01 T01341015  RH  036%=      5-min Rain = 0
KSW1 170757Z 17015G20KT 13/M02 A3011 RMK A01 T01341015  RH  036%=      5-min Rain = 0
KSW1 170758Z 17016KT 13/M01 A3011 RMK A01 T01341014  RH  036%=      5-min Rain = 0
KSW1 170759Z 17017KT 13/M01 A3011 RMK A01 T01341014  RH  036%=      5-min Rain = 0
KSW1 170800Z 17015KT 13/M01 A3011 RMK A01 T01341014  RH  036%=      5-min Rain = 0
KSW1 170801Z 17018G23KT 13/M01 A3011 RMK A01 T01341014  RH  036%=      5-min Rain = 0
KSW1 170802Z 17015KT 13/M01 A3011 RMK A01 T01331014  RH  036%=      5-min Rain = 0
KSW1 170803Z 17017G22KT 13/M01 A3011 RMK A01 T01341013  RH  036%=      5-min Rain = 0
KSW1 170804Z 17014KT 13/M01 A3011 RMK A01 T01331013  RH  036%=      5-min Rain = 0
KSW1 170805Z 17015G21KT 13/M01 A3011 RMK A01 T01331013  RH  036%=      5-min Rain = 0
KSW1 170806Z 17020KT 13/M01 A301 RMK A01 T01331012  RH  037%=      5-min Rain = 0
KSW1 170807Z 17017KT 13/M01 A301 RMK A01 T01341013  RH  036%=      5-min Rain = 0
KSW1 170808Z 16020KT 14/M01 A301 RMK A01 T01351012  RH  036%=      5-min Rain = 0
KSW1 170809Z 17016G25KT 14/M01 A301 RMK A01 T01351013  RH  036%=      5-min Rain = 0
KSW1 170810Z 17015KT 14/M01 A301 RMK A01 T01351013  RH  036%=      5-min Rain = 0
KSW1 170811Z 17014G21KT 13/M01 A301 RMK A01 T01341012  RH  036%=      5-min Rain = 0
KSW1 170812Z 17017KT 13/M01 A301 RMK A01 T01331012  RH  037%=      5-min Rain = 0
KSW1 170813Z 17014KT 13/M01 A301 RMK A01 T01331012  RH  037%=      5-min Rain = 0
KSW1 170814Z 17017KT 13/M01 A301 RMK A01 T01331012  RH  037%=      5-min Rain = 0
KSW1 170815Z 17015KT 13/M01 A301 RMK A01 T01331012  RH  037%=      5-min Rain = 0
KSW1 170816Z 16015KT 13/M01 A301 RMK A01 T01331011  RH  037%=      5-min Rain = 0
KSW1 170817Z 16016KT 13/M01 A301 RMK A01 T01331011  RH  037%=      5-min Rain = 0
KSW1 170818Z 16016G21KT 13/M01 A301 RMK A01 T01331011  RH  037%=      5-min Rain = 0
KSW1 170819Z 17017KT 13/M01 A301 RMK A01 T01331011  RH  037%=      5-min Rain = 0
KSW1 170820Z 16017KT 13/M01 A301 RMK A01 T01331011  RH  037%=      5-min Rain = 0
KSW1 170821Z 17015G20KT 13/M01 A301 RMK A01 T01331011  RH  037%=      5-min Rain = 0
KSW1 170822Z 16015KT 13/M01 A301 RMK A01 T01331011  RH  037%=      5-min Rain = 0
KSW1 170823Z 17014KT 13/M01 A301 RMK A01 T01331011  RH  037%=      5-min Rain = 0
KSW1 170824Z 17017G23KT 13/M01 A301 RMK A01 T01321010  RH  037%=      5-min Rain = 0
KSW1 170825Z 17014KT 13/M01 A301 RMK A01 T01331010  RH  037%=      5-min Rain = 0
KSW1 170826Z 16016KT 13/M01 A301 RMK A01 T01321010  RH  037%=      5-min Rain = 0
KSW1 170827Z 17015KT 13/M01 A301 RMK A01 T01331010  RH  037%=      5-min Rain = 0
KSW1 170828Z 16013KT 13/M01 A301 RMK A01 T01331009  RH  037%=      5-min Rain = 0
KSW1 170829Z 17015G20KT 13/M01 A301 RMK A01 T01321010  RH  038%=      5-min Rain = 0
KSW1 170830Z 17014G19KT 13/M01 A301 RMK A01 T01321010  RH  038%=      5-min Rain = 0
KSW1 170831Z 17016KT 13/M01 A301 RMK A01 T01321009  RH  038%=      5-min Rain = 0
KSW1 170832Z 17016KT 13/M01 A301 RMK A01 T01321009  RH  038%=      5-min Rain = 0
KSW1 170833Z 17018KT 13/M01 A301 RMK A01 T01331009  RH  038%=      5-min Rain = 0
KSW1 170834Z 17014G20KT 13/M01 A301 RMK A01 T01341008  RH  037%=      5-min Rain = 0
KSW1 170835Z 17014KT 13/M01 A301 RMK A01 T01341008  RH  038%=      5-min Rain = 0
KSW1 170836Z 17014KT 13/M01 A301 RMK A01 T01331008  RH  038%=      5-min Rain = 0
KSW1 170837Z 17015KT 13/M01 A301 RMK A01 T01331008  RH  038%=      5-min Rain = 0
KSW1 170838Z 17015KT 13/M01 A301 RMK A01 T01321008  RH  038%=      5-min Rain = 0
KSW1 170839Z 17016KT 13/M01 A301 RMK A01 T01321008  RH  038%=      5-min Rain = 0
KSW1 170840Z 17015G22KT 13/M01 A301 RMK A01 T01331007  RH  038%=      5-min Rain = 0
KSW1 170841Z 17016KT 13/M01 A3009 RMK A01 T01331007  RH  038%=      5-min Rain = 0
KSW1 170842Z 17015KT 13/M01 A3009 RMK A01 T01331007  RH  038%=      5-min Rain = 0
KSW1 170843Z 17014KT 13/M01 A301 RMK A01 T01331007  RH  038%=      5-min Rain = 0
KSW1 170844Z 17015KT 13/M01 A3009 RMK A01 T01331006  RH  038%=      5-min Rain = 0
KSW1 170845Z 17014G19KT 13/M01 A3009 RMK A01 T01331006  RH  038%=      5-min Rain = 0
KSW1 170846Z 17015KT 13/M01 A3009 RMK A01 T01331005  RH  039%=      5-min Rain = 0
KSW1 170847Z 17014G20KT 13/M01 A3009 RMK A01 T01331005  RH  039%=      5-min Rain = 0
KSW1 170848Z 17016KT 13/M01 A3009 RMK A01 T01321005  RH  039%=      5-min Rain = 0
KSW1 170849Z 17014G19KT 13/M01 A3009 RMK A01 T01331005  RH  039%=      5-min Rain = 0
KSW1 170850Z 17014KT 13/M00 A3009 RMK A01 T01331004  RH  039%=      5-min Rain = 0
KSW1 170851Z 17013KT 13/M00 A3009 RMK A01 T01321004  RH  039%=      5-min Rain = 0
KSW1 170852Z 17015KT 13/M00 A3009 RMK A01 T01311004  RH  039%=      5-min Rain = 0
KSW1 170853Z 17016KT 13/M01 A3009 RMK A01 T01311005  RH  039%=      5-min Rain = 0
KSW1 170854Z 17015G20KT 13/M00 A3009 RMK A01 T01321004  RH  039%=      5-min Rain = 0
KSW1 170855Z 17015G21KT 13/M00 A3009 RMK A01 T01321004  RH  039%=      5-min Rain = 0
KSW1 170856Z 17014KT 13/M00 A3009 RMK A01 T01321004  RH  039%=      5-min Rain = 0
KSW1 170857Z 17014G19KT 13/M00 A3009 RMK A01 T01321004  RH  039%=      5-min Rain = 0
KSW1 170858Z 17013KT 13/M00 A3009 RMK A01 T01311004  RH  039%=      5-min Rain = 0
KSW1 170859Z 17012KT 13/M00 A3009 RMK A01 T01311003  RH  040%=      5-min Rain = 0
KSW1 170900Z 17012KT 13/M00 A3009 RMK A01 T01301003  RH  040%=      5-min Rain = 0
KSW1 170901Z 18014KT 13/M00 A3009 RMK A01 T01301003  RH  040%=      5-min Rain = 0
KSW1 170902Z 17015KT 13/M00 A3009 RMK A01 T01301002  RH  040%=      5-min Rain = 0
KSW1 170903Z 17015KT 13/M00 A3009 RMK A01 T01301002  RH  040%=      5-min Rain = 0
KSW1 170904Z 17011KT 13/M00 A3009 RMK A01 T01301002  RH  040%=      5-min Rain = 0
KSW1 170905Z 17014KT 13/M00 A3009 RMK A01 T01301001  RH  041%=      5-min Rain = 0
KSW1 170906Z 17015G20KT 13/M00 A3009 RMK A01 T01291001  RH  041%=      5-min Rain = 0
KSW1 170907Z 17015KT 13/M00 A3009 RMK A01 T01301001  RH  041%=      5-min Rain = 0
KSW1 170908Z 17014G20KT 13/M00 A3009 RMK A01 T01301001  RH  040%=      5-min Rain = 0
KSW1 170909Z 17015KT 13/M00 A3008 RMK A01 T01301001  RH  041%=      5-min Rain = 0
KSW1 170910Z 17016KT 13/M00 A3008 RMK A01 T01301001  RH  041%=      5-min Rain = 0
KSW1 170911Z 17015KT 13/M00 A3008 RMK A01 T01301001  RH  041%=      5-min Rain = 0
KSW1 170912Z 17015KT 13/00 A3008 RMK A01 T013000-0  RH  041%=      5-min Rain = 0
KSW1 170913Z 17014KT 13/00 A3008 RMK A01 T013000-0  RH  041%=      5-min Rain = 0
KSW1 170914Z 17013KT 13/00 A3008 RMK A01 T01290000  RH  041%=      5-min Rain = 0
KSW1 170915Z 17015KT 13/00 A3008 RMK A01 T01280000  RH  041%=      5-min Rain = 0
KSW1 170916Z 17014G19KT 13/00 A3008 RMK A01 T01280000  RH  041%=      5-min Rain = 0
KSW1 170917Z 18016G21KT 13/00 A3008 RMK A01 T01280000  RH  041%=      5-min Rain = 0
KSW1 170918Z 17015KT 13/00 A3008 RMK A01 T01290001  RH  042%=      5-min Rain = 0
KSW1 170919Z 17014KT 13/00 A3008 RMK A01 T01280001  RH  042%=      5-min Rain = 0
KSW1 170920Z 17016KT 13/00 A3008 RMK A01 T01280002  RH  042%=      5-min Rain = 0
KSW1 170921Z 17015KT 13/00 A3008 RMK A01 T01280002  RH  042%=      5-min Rain = 0
KSW1 170922Z 17014KT 13/00 A3008 RMK A01 T01280002  RH  042%=      5-min Rain = 0
KSW1 170923Z 17013KT 13/00 A3008 RMK A01 T01280002  RH  042%=      5-min Rain = 0
KSW1 170924Z 17014KT 13/00 A3008 RMK A01 T01270002  RH  042%=      5-min Rain = 0
KSW1 170925Z 17015KT 13/00 A3008 RMK A01 T01270002  RH  042%=      5-min Rain = 0
KSW1 170926Z 17013KT 13/00 A3008 RMK A01 T01270003  RH  042%=      5-min Rain = 0
KSW1 170927Z 17016KT 13/00 A3007 RMK A01 T01270003  RH  043%=      5-min Rain = 0
KSW1 170928Z 17016KT 13/00 A3008 RMK A01 T01270004  RH  043%=      5-min Rain = 0
KSW1 170929Z 18015G20KT 13/00 A3007 RMK A01 T01280004  RH  043%=      5-min Rain = 0
KSW1 170930Z 17014G19KT 13/00 A3007 RMK A01 T01270004  RH  043%=      5-min Rain = 0
KSW1 170931Z 17015G20KT 13/01 A3007 RMK A01 T01280005  RH  043%=      5-min Rain = 0
KSW1 170932Z 17015G20KT 13/01 A3007 RMK A01 T01280006  RH  043%=      5-min Rain = 0
KSW1 170933Z 17015KT 13/01 A3007 RMK A01 T01280006  RH  043%=      5-min Rain = 0
KSW1 170934Z 18014KT 13/01 A3007 RMK A01 T01290007  RH  043%=      5-min Rain = 0
KSW1 170935Z 17015KT 13/01 A3007 RMK A01 T01290007  RH  043%=      5-min Rain = 0
KSW1 170936Z 17015KT 13/01 A3007 RMK A01 T01290007  RH  043%=      5-min Rain = 0
KSW1 170937Z 17012KT 13/01 A3007 RMK A01 T01290008  RH  043%=      5-min Rain = 0
KSW1 170938Z 17016KT 13/01 A3007 RMK A01 T01290008  RH  044%=      5-min Rain = 0
KSW1 170939Z 17014G19KT 13/01 A3007 RMK A01 T01280008  RH  044%=      5-min Rain = 0
KSW1 170940Z 17012KT 13/01 A3007 RMK A01 T01280008  RH  044%=      5-min Rain = 0
KSW1 170941Z 18014KT 13/01 A3007 RMK A01 T01280009  RH  044%=      5-min Rain = 0
KSW1 170942Z 18015KT 13/01 A3007 RMK A01 T01280009  RH  044%=      5-min Rain = 0
KSW1 170943Z 18015KT 13/01 A3007 RMK A01 T01280009  RH  044%=      5-min Rain = 0
KSW1 170944Z 17014KT 13/01 A3007 RMK A01 T01280009  RH  044%=      5-min Rain = 0
KSW1 170945Z 17015KT 13/01 A3007 RMK A01 T01280010  RH  044%=      5-min Rain = 0
KSW1 170946Z 17014KT 13/01 A3007 RMK A01 T01280010  RH  044%=      5-min Rain = 0
KSW1 170947Z 18016G21KT 13/01 A3007 RMK A01 T01280010  RH  044%=      5-min Rain = 0
KSW1 170948Z 18014KT 13/01 A3007 RMK A01 T01280010  RH  044%=      5-min Rain = 0
KSW1 170949Z 18014KT 13/01 A3007 RMK A01 T01280011  RH  045%=      5-min Rain = 0
KSW1 170950Z 17016KT 13/01 A3007 RMK A01 T01280011  RH  045%=      5-min Rain = 0
KSW1 170951Z 17014KT 13/01 A3007 RMK A01 T01280011  RH  045%=      5-min Rain = 0
KSW1 170952Z 18015KT 13/01 A3007 RMK A01 T01270011  RH  045%=      5-min Rain = 0
KSW1 170953Z 18017G22KT 13/01 A3007 RMK A01 T01270011  RH  045%=      5-min Rain = 0
KSW1 170954Z 17016KT 13/01 A3007 RMK A01 T01280012  RH  045%=      5-min Rain = 0
KSW1 170955Z 17016G21KT 13/01 A3007 RMK A01 T01280012  RH  045%=      5-min Rain = 0
KSW1 170956Z 18016KT 13/01 A3007 RMK A01 T01270012  RH  045%=      5-min Rain = 0
KSW1 170957Z 18016KT 13/01 A3007 RMK A01 T01270013  RH  046%=      5-min Rain = 0
KSW1 170958Z 18015G20KT 13/01 A3007 RMK A01 T01270013  RH  046%=      5-min Rain = 0
KSW1 170959Z 18015KT 13/01 A3007 RMK A01 T01270014  RH  046%=      5-min Rain = 0
KSW1 171000Z 17020KT 13/01 A3007 RMK A01 T01260014  RH  046%=      5-min Rain = 0
KSW1 171001Z 17016G23KT 13/01 A3007 RMK A01 T01270014  RH  046%=      5-min Rain = 0
KSW1 171002Z 17017KT 13/02 A3007 RMK A01 T01280015  RH  046%=      5-min Rain = 0
KSW1 171003Z 17017G22KT 13/02 A3007 RMK A01 T01280015  RH  046%=      5-min Rain = 0
KSW1 171004Z 18018KT 13/02 A3007 RMK A01 T01270015  RH  046%=      5-min Rain = 0
KSW1 171005Z 18015KT 13/02 A3007 RMK A01 T01280015  RH  046%=      5-min Rain = 0
KSW1 171006Z 17016KT 13/02 A3007 RMK A01 T01270016  RH  047%=      5-min Rain = 0
KSW1 171007Z 18019KT 13/02 A3007 RMK A01 T01270016  RH  047%=      5-min Rain = 0
KSW1 171008Z 18018KT 13/02 A3007 RMK A01 T01270016  RH  047%=      5-min Rain = 0
KSW1 171009Z 18018KT 13/02 A3007 RMK A01 T01270016  RH  047%=      5-min Rain = 0
KSW1 171010Z 18017KT 13/02 A3007 RMK A01 T01270016  RH  047%=      5-min Rain = 0
KSW1 171011Z 18014KT 13/02 A3007 RMK A01 T01270017  RH  047%=      5-min Rain = 0
KSW1 171012Z 17016G21KT 13/02 A3007 RMK A01 T01260018  RH  048%=      5-min Rain = 0
KSW1 171013Z 17015G20KT 13/02 A3007 RMK A01 T01260018  RH  048%=      5-min Rain = 0
KSW1 171014Z 18016KT 13/02 A3007 RMK A01 T01260018  RH  048%=      5-min Rain = 0
KSW1 171015Z 18017KT 13/02 A3007 RMK A01 T01260018  RH  048%=      5-min Rain = 0
KSW1 171016Z 17017KT 13/02 A3007 RMK A01 T01260019  RH  048%=      5-min Rain = 0
KSW1 171017Z 18016KT 13/02 A3007 RMK A01 T01260020  RH  048%=      5-min Rain = 0
KSW1 171018Z 18016KT 13/02 A3007 RMK A01 T01270020  RH  048%=      5-min Rain = 0
KSW1 171019Z 17017KT 13/02 A3007 RMK A01 T01260021  RH  049%=      5-min Rain = 0
KSW1 171020Z 18015G20KT 13/02 A3007 RMK A01 T01260022  RH  049%=      5-min Rain = 0
KSW1 171021Z 17017KT 13/02 A3007 RMK A01 T01260021  RH  049%=      5-min Rain = 0
KSW1 171022Z 17018KT 13/02 A3007 RMK A01 T01260022  RH  049%=      5-min Rain = 0
KSW1 171023Z 17016KT 13/02 A3007 RMK A01 T01270023  RH  049%=      5-min Rain = 0
KSW1 171024Z 18015KT 13/02 A3007 RMK A01 T01260023  RH  049%=      5-min Rain = 0
KSW1 171025Z 18017KT 13/02 A3007 RMK A01 T01260024  RH  050%=      5-min Rain = 0
KSW1 171026Z 18015KT 13/02 A3007 RMK A01 T01260024  RH  050%=      5-min Rain = 0
KSW1 171027Z 18016KT 13/02 A3007 RMK A01 T01260024  RH  050%=      5-min Rain = 0
KSW1 171028Z 18018KT 13/03 A3007 RMK A01 T01260025  RH  050%=      5-min Rain = 0
KSW1 171029Z 17016G21KT 13/03 A3007 RMK A01 T01260025  RH  050%=      5-min Rain = 0
KSW1 171030Z 18015G20KT 13/03 A3007 RMK A01 T01260026  RH  050%=      5-min Rain = 0
KSW1 171031Z 18015KT 13/03 A3007 RMK A01 T01260026  RH  051%=      5-min Rain = 0
KSW1 171032Z 18014KT 13/03 A3007 RMK A01 T01250026  RH  051%=      5-min Rain = 0
KSW1 171033Z 18014G19KT 13/03 A3007 RMK A01 T01250026  RH  051%=      5-min Rain = 0
KSW1 171034Z 17015KT 12/03 A3007 RMK A01 T01240027  RH  051%=      5-min Rain = 0
KSW1 171035Z 18016KT 12/03 A3007 RMK A01 T01240027  RH  051%=      5-min Rain = 0
KSW1 171036Z 18017KT 12/03 A3006 RMK A01 T01240027  RH  051%=      5-min Rain = 0
KSW1 171037Z 18015KT 12/03 A3007 RMK A01 T01240027  RH  052%=      5-min Rain = 0
KSW1 171038Z 18016KT 12/03 A3006 RMK A01 T01240027  RH  052%=      5-min Rain = 0
KSW1 171039Z 18016KT 12/03 A3007 RMK A01 T01240028  RH  052%=      5-min Rain = 0
KSW1 171040Z 18015KT 12/03 A3006 RMK A01 T01240028  RH  052%=      5-min Rain = 0
KSW1 171041Z 18013G18KT 12/03 A3006 RMK A01 T01240028  RH  052%=      5-min Rain = 0
KSW1 171042Z 18019KT 12/03 A3006 RMK A01 T01240028  RH  052%=      5-min Rain = 0
KSW1 171043Z 18014KT 12/03 A3006 RMK A01 T01240029  RH  052%=      5-min Rain = 0
KSW1 171044Z 18014KT 12/03 A3006 RMK A01 T01240030  RH  052%=      5-min Rain = 0
KSW1 171045Z 18015KT 12/03 A3006 RMK A01 T01230030  RH  053%=      5-min Rain = 0
KSW1 171046Z 18018KT 12/03 A3006 RMK A01 T01240030  RH  053%=      5-min Rain = 0
KSW1 171047Z 18016G21KT 12/03 A3006 RMK A01 T01240030  RH  053%=      5-min Rain = 0
KSW1 171048Z 18017KT 13/03 A3006 RMK A01 T01250030  RH  053%=      5-min Rain = 0
KSW1 171049Z 17017KT 12/03 A3006 RMK A01 T01240031  RH  053%=      5-min Rain = 0
KSW1 171050Z 17015KT 12/03 A3006 RMK A01 T01240031  RH  053%=      5-min Rain = 0
KSW1 171051Z 18016G22KT 12/03 A3006 RMK A01 T01240031  RH  053%=      5-min Rain = 0
KSW1 171052Z 18016KT 12/03 A3006 RMK A01 T01240031  RH  053%=      5-min Rain = 0
KSW1 171053Z 18017KT 13/03 A3006 RMK A01 T01250032  RH  053%=      5-min Rain = 0
KSW1 171054Z 18019G25KT 13/03 A3006 RMK A01 T01250032  RH  053%=      5-min Rain = 0
KSW1 171055Z 18017KT 13/03 A3006 RMK A01 T01260031  RH  053%=      5-min Rain = 0
KSW1 171056Z 18014KT 13/03 A3006 RMK A01 T01260032  RH  053%=      5-min Rain = 0
KSW1 171057Z 18014KT 13/03 A3006 RMK A01 T01250032  RH  053%=      5-min Rain = 0
KSW1 171058Z 18017KT 12/03 A3006 RMK A01 T01240032  RH  053%=      5-min Rain = 0
KSW1 171059Z 18016KT 13/03 A3006 RMK A01 T01250032  RH  053%=      5-min Rain = 0
KSW1 171100Z 18016KT 13/03 A3006 RMK A01 T01250032  RH  053%=      5-min Rain = 0
KSW1 171101Z 18016KT 13/03 A3006 RMK A01 T01250032  RH  053%=      5-min Rain = 0
KSW1 171102Z 17017KT 13/03 A3006 RMK A01 T01250032  RH  053%=      5-min Rain = 0
KSW1 171103Z 18019KT 13/03 A3006 RMK A01 T01250032  RH  053%=      5-min Rain = 0
KSW1 171104Z 17016KT 13/03 A3006 RMK A01 T01260032  RH  053%=      5-min Rain = 0
KSW1 171105Z 18016G24KT 13/03 A3006 RMK A01 T01260032  RH  053%=      5-min Rain = 0
KSW1 171106Z 17018KT 13/03 A3006 RMK A01 T01260032  RH  053%=      5-min Rain = 0
KSW1 171107Z 18017G24KT 13/03 A3006 RMK A01 T01260032  RH  053%=      5-min Rain = 0
KSW1 171108Z 18018KT 13/03 A3006 RMK A01 T01260032  RH  053%=      5-min Rain = 0
KSW1 171109Z 17016KT 13/03 A3006 RMK A01 T01260032  RH  053%=      5-min Rain = 0
KSW1 171110Z 18016G21KT 13/03 A3006 RMK A01 T01260032  RH  053%=      5-min Rain = 0
KSW1 171111Z 17020KT 13/03 A3006 RMK A01 T01260033  RH  053%=      5-min Rain = 0
KSW1 171112Z 17016KT 13/03 A3006 RMK A01 T01260032  RH  053%=      5-min Rain = 0
KSW1 171113Z 17020KT 13/03 A3006 RMK A01 T01270033  RH  053%=      5-min Rain = 0
KSW1 171114Z 18017KT 13/03 A3006 RMK A01 T01270033  RH  053%=      5-min Rain = 0
KSW1 171115Z 18015G21KT 13/03 A3006 RMK A01 T01270033  RH  053%=      5-min Rain = 0
KSW1 171116Z 18018G23KT 13/03 A3006 RMK A01 T01260034  RH  053%=      5-min Rain = 0
KSW1 171117Z 17017KT 13/03 A3006 RMK A01 T01260034  RH  053%=      5-min Rain = 0
KSW1 171118Z 18018KT 13/03 A3006 RMK A01 T01260034  RH  053%=      5-min Rain = 0
KSW1 171119Z 18018KT 13/04 A3006 RMK A01 T01260035  RH  054%=      5-min Rain = 0
KSW1 171120Z 18018G23KT 13/03 A3006 RMK A01 T01260034  RH  054%=      5-min Rain = 0
KSW1 171121Z 17019KT 13/04 A3006 RMK A01 T01260035  RH  054%=      5-min Rain = 0
KSW1 171122Z 18016KT 13/04 A3006 RMK A01 T01260035  RH  054%=      5-min Rain = 0
KSW1 171123Z 18016G22KT 13/04 A3006 RMK A01 T01260035  RH  054%=      5-min Rain = 0
KSW1 171124Z 18018KT 13/04 A3006 RMK A01 T01250036  RH  054%=      5-min Rain = 0
KSW1 171125Z 18017KT 13/04 A3006 RMK A01 T01250036  RH  054%=      5-min Rain = 0
KSW1 171126Z 18019G25KT 13/04 A3006 RMK A01 T01250036  RH  054%=      5-min Rain = 0
KSW1 171127Z 18019KT 13/04 A3006 RMK A01 T01250036  RH  054%=      5-min Rain = 0
KSW1 171128Z 17020KT 13/04 A3006 RMK A01 T01260036  RH  054%=      5-min Rain = 0
KSW1 171129Z 18017KT 13/04 A3006 RMK A01 T01260036  RH  054%=      5-min Rain = 0
KSW1 171130Z 18017G24KT 13/04 A3006 RMK A01 T01260036  RH  054%=      5-min Rain = 0
KSW1 171131Z 18018KT 13/04 A3006 RMK A01 T01260036  RH  054%=      5-min Rain = 0
KSW1 171132Z 18018KT 13/04 A3006 RMK A01 T01260036  RH  055%=      5-min Rain = 0
KSW1 171133Z 18019KT 13/04 A3006 RMK A01 T01260036  RH  055%=      5-min Rain = 0
KSW1 171134Z 18020G27KT 13/04 A3006 RMK A01 T01260037  RH  055%=      5-min Rain = 0
KSW1 171135Z 18016KT 13/04 A3006 RMK A01 T01260037  RH  055%=      5-min Rain = 0
KSW1 171136Z 18016KT 13/04 A3006 RMK A01 T01250037  RH  055%=      5-min Rain = 0
KSW1 171137Z 18018KT 12/04 A3006 RMK A01 T01240037  RH  055%=      5-min Rain = 0
KSW1 171138Z 18019G24KT 12/04 A3006 RMK A01 T01240037  RH  055%=      5-min Rain = 0
KSW1 171139Z 18020KT 13/04 A3006 RMK A01 T01250038  RH  055%=      5-min Rain = 0
KSW1 171140Z 18019G24KT 13/04 A3006 RMK A01 T01250037  RH  055%=      5-min Rain = 0
KSW1 171141Z 18020KT 13/04 A3006 RMK A01 T01250037  RH  055%=      5-min Rain = 0
KSW1 171142Z 18017KT 13/04 A3006 RMK A01 T01250037  RH  055%=      5-min Rain = 0
KSW1 171143Z 18017KT 12/04 A3006 RMK A01 T01240037  RH  055%=      5-min Rain = 0
KSW1 171144Z 18016KT 12/04 A3006 RMK A01 T01240038  RH  056%=      5-min Rain = 0
KSW1 171145Z 18018KT 12/04 A3006 RMK A01 T01230038  RH  056%=      5-min Rain = 0
KSW1 171146Z 18020KT 12/04 A3006 RMK A01 T01230038  RH  056%=      5-min Rain = 0
KSW1 171147Z 18017KT 12/04 A3006 RMK A01 T01230038  RH  056%=      5-min Rain = 0
KSW1 171148Z 18016G23KT 12/04 A3006 RMK A01 T01230038  RH  056%=      5-min Rain = 0
KSW1 171149Z 18016KT 12/04 A3006 RMK A01 T01230038  RH  056%=      5-min Rain = 0
KSW1 171150Z 18017KT 12/04 A3006 RMK A01 T01230038  RH  056%=      5-min Rain = 0
KSW1 171151Z 18017KT 12/04 A3006 RMK A01 T01230038  RH  056%=      5-min Rain = 0
KSW1 171152Z 18017G22KT 12/04 A3006 RMK A01 T01230038  RH  056%=      5-min Rain = 0
KSW1 171153Z 18017G23KT 12/04 A3006 RMK A01 T01220038  RH  056%=      5-min Rain = 0
KSW1 171154Z 18017KT 12/04 A3006 RMK A01 T01220038  RH  057%=      5-min Rain = 0
KSW1 171155Z 18018KT 12/04 A3006 RMK A01 T01220038  RH  056%=      5-min Rain = 0
KSW1 171156Z 18018G23KT 12/04 A3006 RMK A01 T01220038  RH  056%=      5-min Rain = 0
KSW1 171157Z 18017KT 12/04 A3006 RMK A01 T01220038  RH  057%=      5-min Rain = 0
KSW1 171158Z 18017G22KT 12/04 A3006 RMK A01 T01220039  RH  057%=      5-min Rain = 0
KSW1 171159Z 18016KT 12/04 A3006 RMK A01 T01220039  RH  057%=      5-min Rain = 0
KSW1 171200Z 18018KT 12/04 A3006 RMK A01 T01220039  RH  057%=      5-min Rain = 0
KSW1 171201Z 18017KT 12/04 A3006 RMK A01 T01220039  RH  057%=      5-min Rain = 0
KSW1 171202Z 18016KT 12/04 A3006 RMK A01 T01210039  RH  057%=      5-min Rain = 0
KSW1 171203Z 18018G23KT 12/04 A3006 RMK A01 T01210039  RH  057%=      5-min Rain = 0
KSW1 171204Z 18017KT 12/04 A3006 RMK A01 T01210040  RH  057%=      5-min Rain = 0
KSW1 171205Z 18018G24KT 12/04 A3006 RMK A01 T01210040  RH  058%=      5-min Rain = 0
KSW1 171206Z 18020G25KT 12/04 A3006 RMK A01 T01210040  RH  058%=      5-min Rain = 0
KSW1 171207Z 18017G22KT 12/04 A3006 RMK A01 T01210040  RH  058%=      5-min Rain = 0
KSW1 171208Z 18020KT 12/04 A3006 RMK A01 T01210040  RH  058%=      5-min Rain = 0
KSW1 171209Z 18017KT 12/04 A3006 RMK A01 T01210040  RH  058%=      5-min Rain = 0
KSW1 171210Z 18021KT 12/04 A3006 RMK A01 T01210040  RH  058%=      5-min Rain = 0
KSW1 171211Z 18021KT 12/04 A3006 RMK A01 T01210040  RH  058%=      5-min Rain = 0
KSW1 171212Z 18018KT 12/04 A3006 RMK A01 T01220041  RH  058%=      5-min Rain = 0
KSW1 171213Z 18019KT 12/04 A3005 RMK A01 T01220041  RH  058%=      5-min Rain = 0
KSW1 171214Z 18016KT 12/04 A3006 RMK A01 T01210042  RH  058%=      5-min Rain = 0
KSW1 171215Z 18018KT 12/04 A3005 RMK A01 T01210042  RH  058%=      5-min Rain = 0
KSW1 171216Z 18018KT 12/04 A3005 RMK A01 T01210042  RH  059%=      5-min Rain = 0
KSW1 171217Z 18018KT 12/04 A3005 RMK A01 T01200042  RH  059%=      5-min Rain = 0
KSW1 171218Z 18018G23KT 12/04 A3005 RMK A01 T01200043  RH  059%=      5-min Rain = 0
KSW1 171219Z 18016KT 12/04 A3005 RMK A01 T01200043  RH  059%=      5-min Rain = 0
KSW1 171220Z 18015G20KT 12/04 A3005 RMK A01 T01200043  RH  059%=      5-min Rain = 0
KSW1 171221Z 18017KT 12/04 A3005 RMK A01 T01190043  RH  060%=      5-min Rain = 0
KSW1 171222Z 18016G22KT 12/04 A3005 RMK A01 T01190044  RH  060%=      5-min Rain = 0
KSW1 171223Z 18017G24KT 12/04 A3005 RMK A01 T01190044  RH  060%=      5-min Rain = 0
KSW1 171224Z 18017G23KT 12/04 A3005 RMK A01 T01180044  RH  060%=      5-min Rain = 0
KSW1 171225Z 18015KT 12/04 A3005 RMK A01 T01190044  RH  060%=      5-min Rain = 0
KSW1 171226Z 18019KT 12/05 A3005 RMK A01 T01190045  RH  060%=      5-min Rain = 0
KSW1 171227Z 18016KT 12/04 A3005 RMK A01 T01180044  RH  060%=      5-min Rain = 0
KSW1 171228Z 18018KT 12/05 A3005 RMK A01 T01180045  RH  061%=      5-min Rain = 0
KSW1 171229Z 18021KT 12/05 A3005 RMK A01 T01180045  RH  061%=      5-min Rain = 0
KSW1 171230Z 18019G25KT 12/05 A3005 RMK A01 T01190045  RH  061%=      5-min Rain = 0
KSW1 171231Z 18019KT 12/05 A3005 RMK A01 T01190045  RH  060%=      5-min Rain = 0
KSW1 171232Z 18020KT 12/05 A3005 RMK A01 T01190045  RH  061%=      5-min Rain = 0
KSW1 171233Z 18017KT 12/05 A3005 RMK A01 T01190046  RH  061%=      5-min Rain = 0
KSW1 171234Z 18016G21KT 12/05 A3005 RMK A01 T01190046  RH  061%=      5-min Rain = 0
KSW1 171235Z 18016KT 12/05 A3005 RMK A01 T01180046  RH  061%=      5-min Rain = 0
KSW1 171236Z 18016G21KT 12/05 A3005 RMK A01 T01180046  RH  061%=      5-min Rain = 0
KSW1 171237Z 18018KT 12/05 A3005 RMK A01 T01170046  RH  062%=      5-min Rain = 0
KSW1 171238Z 18015KT 12/05 A3005 RMK A01 T01170046  RH  061%=      5-min Rain = 0
KSW1 171239Z 17017G22KT 12/05 A3005 RMK A01 T01180047  RH  062%=      5-min Rain = 0
KSW1 171240Z 18018KT 12/05 A3005 RMK A01 T01170047  RH  062%=      5-min Rain = 0
KSW1 171241Z 18016KT 12/05 A3005 RMK A01 T01170047  RH  062%=      5-min Rain = 0
KSW1 171242Z 18018KT 12/05 A3005 RMK A01 T01170047  RH  062%=      5-min Rain = 0
KSW1 171243Z 18020KT 12/05 A3005 RMK A01 T01170047  RH  062%=      5-min Rain = 0
KSW1 171244Z 18016KT 12/05 A3005 RMK A01 T01170048  RH  062%=      5-min Rain = 0
KSW1 171245Z 18018KT 12/05 A3005 RMK A01 T01170048  RH  063%=      5-min Rain = 0
KSW1 171246Z 18017KT 12/05 A3005 RMK A01 T01170048  RH  063%=      5-min Rain = 0
KSW1 171247Z 18017KT 12/05 A3005 RMK A01 T01170049  RH  063%=      5-min Rain = 0
KSW1 171248Z 18015G20KT 12/05 A3005 RMK A01 T01170048  RH  063%=      5-min Rain = 0
KSW1 171249Z 18017KT 12/05 A3005 RMK A01 T01170049  RH  063%=      5-min Rain = 0
KSW1 171250Z 17016KT 12/05 A3005 RMK A01 T01170050  RH  063%=      5-min Rain = 0
KSW1 171251Z 18015KT 12/05 A3005 RMK A01 T01170050  RH  063%=      5-min Rain = 0
KSW1 171252Z 18018KT 12/05 A3005 RMK A01 T01170050  RH  064%=      5-min Rain = 0
KSW1 171253Z 17017KT 12/05 A3005 RMK A01 T01170050  RH  064%=      5-min Rain = 0
KSW1 171254Z 18016G21KT 12/05 A3005 RMK A01 T01170050  RH  064%=      5-min Rain = 0
KSW1 171255Z 18019KT 12/05 A3005 RMK A01 T01160050  RH  064%=      5-min Rain = 0
KSW1 171256Z 18017KT 12/05 A3005 RMK A01 T01170051  RH  064%=      5-min Rain = 0
KSW1 171257Z 17017KT 12/05 A3005 RMK A01 T01170051  RH  064%=      5-min Rain = 0
KSW1 171258Z 18019KT 12/05 A3005 RMK A01 T01170052  RH  064%=      5-min Rain = 0
KSW1 171259Z 18017KT 12/05 A3005 RMK A01 T01160052  RH  064%=      5-min Rain = 0
KSW1 171300Z 18018KT 12/05 A3005 RMK A01 T01170052  RH  064%=      5-min Rain = 0
KSW1 171301Z 18016G21KT 12/05 A3005 RMK A01 T01170052  RH  064%=      5-min Rain = 0
KSW1 171302Z 18016KT 12/05 A3005 RMK A01 T01170053  RH  065%=      5-min Rain = 0
KSW1 171303Z 18017KT 12/05 A3005 RMK A01 T01170053  RH  065%=      5-min Rain = 0
KSW1 171304Z 17020KT 12/05 A3004 RMK A01 T01170053  RH  065%=      5-min Rain = 0
KSW1 171305Z 18017KT 12/05 A3004 RMK A01 T01170054  RH  065%=      5-min Rain = 0
KSW1 171306Z 18017KT 12/05 A3005 RMK A01 T01170054  RH  065%=      5-min Rain = 0
KSW1 171307Z 18014KT 12/05 A3005 RMK A01 T01170054  RH  065%=      5-min Rain = 0
KSW1 171308Z 18017KT 12/06 A3005 RMK A01 T01170055  RH  066%=      5-min Rain = 0
KSW1 171309Z 18019KT 12/06 A3004 RMK A01 T01160055  RH  066%=      5-min Rain = 0
KSW1 171310Z 18016KT 12/06 A3005 RMK A01 T01170056  RH  066%=      5-min Rain = 0
KSW1 171311Z 18015KT 12/06 A3005 RMK A01 T01170056  RH  066%=      5-min Rain = 0
KSW1 171312Z 18017KT 12/06 A3004 RMK A01 T01170056  RH  066%=      5-min Rain = 0
KSW1 171313Z 17018KT 12/06 A3004 RMK A01 T01170057  RH  066%=      5-min Rain = 0
KSW1 171314Z 18014KT 12/06 A3005 RMK A01 T01170057  RH  066%=      5-min Rain = 0
KSW1 171315Z 18016G21KT 12/06 A3005 RMK A01 T01170057  RH  066%=      5-min Rain = 0
KSW1 171316Z 18017KT 12/06 A3004 RMK A01 T01170058  RH  067%=      5-min Rain = 0
KSW1 171317Z 18014KT 12/06 A3005 RMK A01 T01170058  RH  067%=      5-min Rain = 0
KSW1 171318Z 18015KT 12/06 A3005 RMK A01 T01180059  RH  067%=      5-min Rain = 0
KSW1 171319Z 18016G21KT 12/06 A3004 RMK A01 T01180059  RH  068%=      5-min Rain = 0
KSW1 171320Z 18017KT 12/06 A3005 RMK A01 T01180060  RH  068%=      5-min Rain = 0
KSW1 171321Z 18018KT 12/06 A3005 RMK A01 T01180061  RH  068%=      5-min Rain = 0
KSW1 171322Z 18016KT 12/06 A3005 RMK A01 T01190061  RH  068%=      5-min Rain = 0
KSW1 171323Z 18015KT 12/06 A3005 RMK A01 T01190061  RH  068%=      5-min Rain = 0
KSW1 171324Z 18016KT 12/06 A3005 RMK A01 T01190062  RH  068%=      5-min Rain = 0
KSW1 171325Z 18016KT 12/06 A3005 RMK A01 T01190062  RH  068%=      5-min Rain = 0
KSW1 171326Z 18016KT 12/06 A3005 RMK A01 T01200063  RH  068%=      5-min Rain = 0
KSW1 171327Z 18016KT 12/06 A3005 RMK A01 T01200063  RH  068%=      5-min Rain = 0
KSW1 171328Z 18014G19KT 12/06 A3005 RMK A01 T01200064  RH  069%=      5-min Rain = 0
KSW1 171329Z 18016G21KT 12/06 A3005 RMK A01 T01200064  RH  069%=      5-min Rain = 0
KSW1 171330Z 18015G20KT 12/06 A3005 RMK A01 T01200064  RH  069%=      5-min Rain = 0
KSW1 171331Z 18018KT 12/07 A3005 RMK A01 T01200065  RH  069%=      5-min Rain = 0
KSW1 171332Z 18018KT 12/07 A3005 RMK A01 T01210065  RH  069%=      5-min Rain = 0
KSW1 171333Z 18017KT 12/07 A3005 RMK A01 T01210066  RH  069%=      5-min Rain = 0
KSW1 171334Z 18015KT 12/07 A3005 RMK A01 T01210065  RH  069%=      5-min Rain = 0
KSW1 171335Z 18016G21KT 12/07 A3005 RMK A01 T01210066  RH  069%=      5-min Rain = 0
KSW1 171336Z 18015KT 12/07 A3005 RMK A01 T01210066  RH  069%=      5-min Rain = 0
KSW1 171337Z 18015KT 12/07 A3005 RMK A01 T01220067  RH  069%=      5-min Rain = 0
KSW1 171338Z 18019KT 12/07 A3005 RMK A01 T01220068  RH  069%=      5-min Rain = 0
KSW1 171339Z 18017G22KT 12/07 A3005 RMK A01 T01230069  RH  070%=      5-min Rain = 0
KSW1 171340Z 18018G23KT 12/07 A3005 RMK A01 T01230070  RH  070%=      5-min Rain = 0
KSW1 171341Z 18017KT 12/07 A3005 RMK A01 T01230070  RH  070%=      5-min Rain = 0
KSW1 171342Z 18018KT 12/07 A3005 RMK A01 T01240071  RH  070%=      5-min Rain = 0
KSW1 171343Z 18016KT 12/07 A3005 RMK A01 T01240071  RH  070%=      5-min Rain = 0
KSW1 171344Z 18019G25KT 12/07 A3005 RMK A01 T01240071  RH  070%=      5-min Rain = 0
KSW1 171345Z 18016KT 12/07 A3005 RMK A01 T01240071  RH  070%=      5-min Rain = 0
KSW1 171346Z 18016KT 12/07 A3005 RMK A01 T01240072  RH  070%=      5-min Rain = 0
KSW1 171347Z 18016G21KT 13/07 A3005 RMK A01 T01250072  RH  070%=      5-min Rain = 0
KSW1 171348Z 18014KT 13/07 A3005 RMK A01 T01250073  RH  070%=      5-min Rain = 0
KSW1 171349Z 18014KT 13/07 A3005 RMK A01 T01250073  RH  070%=      5-min Rain = 0
KSW1 171350Z 19017G23KT 13/07 A3005 RMK A01 T01260074  RH  070%=      5-min Rain = 0
KSW1 171351Z 18016KT 13/07 A3005 RMK A01 T01260074  RH  070%=      5-min Rain = 0
KSW1 171352Z 18014KT 13/07 A3005 RMK A01 T01260074  RH  070%=      5-min Rain = 0
KSW1 171353Z 18014G19KT 13/07 A3005 RMK A01 T01260074  RH  071%=      5-min Rain = 0
KSW1 171354Z 18015KT 13/07 A3005 RMK A01 T01270074  RH  070%=      5-min Rain = 0
KSW1 171355Z 18015KT 13/07 A3005 RMK A01 T01270074  RH  070%=      5-min Rain = 0
KSW1 171356Z 18018KT 13/08 A3005 RMK A01 T01270075  RH  071%=      5-min Rain = 0
KSW1 171357Z 18014KT 13/08 A3005 RMK A01 T01270075  RH  071%=      5-min Rain = 0
KSW1 171358Z 18018KT 13/08 A3005 RMK A01 T01280075  RH  071%=      5-min Rain = 0
KSW1 171359Z 19018KT 13/08 A3005 RMK A01 T01280075  RH  070%=      5-min Rain = 0
KSW1 171400Z 19019KT 13/08 A3005 RMK A01 T01280076  RH  070%=      5-min Rain = 0
KSW1 171401Z 18015KT 13/08 A3005 RMK A01 T01280076  RH  071%=      5-min Rain = 0
KSW1 171402Z 19018KT 13/08 A3005 RMK A01 T01290076  RH  070%=      5-min Rain = 0
KSW1 171403Z 18019KT 13/08 A3005 RMK A01 T01290076  RH  070%=      5-min Rain = 0
KSW1 171404Z 18018KT 13/08 A3005 RMK A01 T01290077  RH  070%=      5-min Rain = 0
KSW1 171405Z 18017KT 13/08 A3005 RMK A01 T01290077  RH  070%=      5-min Rain = 0
KSW1 171406Z 19016KT 13/08 A3006 RMK A01 T01300077  RH  070%=      5-min Rain = 0
KSW1 171407Z 19016KT 13/08 A3006 RMK A01 T01300078  RH  070%=      5-min Rain = 0
KSW1 171408Z 19014KT 13/08 A3006 RMK A01 T01310078  RH  070%=      5-min Rain = 0
KSW1 171409Z 18018KT 13/08 A3006 RMK A01 T01320078  RH  070%=      5-min Rain = 0
KSW1 171410Z 19015KT 13/08 A3006 RMK A01 T01320078  RH  070%=      5-min Rain = 0
KSW1 171411Z 19016KT 13/08 A3006 RMK A01 T01320078  RH  070%=      5-min Rain = 0
KSW1 171412Z 19014G19KT 13/08 A3006 RMK A01 T01320078  RH  070%=      5-min Rain = 0
KSW1 171413Z 18016G22KT 13/08 A3006 RMK A01 T01330078  RH  069%=      5-min Rain = 0
KSW1 171414Z 19017KT 13/08 A3005 RMK A01 T01330078  RH  069%=      5-min Rain = 0
KSW1 171415Z 19018KT 13/08 A3005 RMK A01 T01330078  RH  069%=      5-min Rain = 0
KSW1 171416Z 19015KT 13/08 A3005 RMK A01 T01330079  RH  069%=      5-min Rain = 0
KSW1 171417Z 19016G21KT 13/08 A3005 RMK A01 T01340079  RH  069%=      5-min Rain = 0
KSW1 171418Z 18017KT 14/08 A3005 RMK A01 T01350079  RH  069%=      5-min Rain = 0
KSW1 171419Z 18016G21KT 14/08 A3005 RMK A01 T01360080  RH  069%=      5-min Rain = 0
KSW1 171420Z 18016G21KT 14/08 A3005 RMK A01 T01360080  RH  069%=      5-min Rain = 0
KSW1 171421Z 18019KT 14/08 A3005 RMK A01 T01360081  RH  069%=      5-min Rain = 0
KSW1 171422Z 19017G22KT 14/08 A3005 RMK A01 T01370081  RH  069%=      5-min Rain = 0
KSW1 171423Z 19015KT 14/08 A3005 RMK A01 T01380082  RH  069%=      5-min Rain = 0
KSW1 171424Z 18016G23KT 14/08 A3005 RMK A01 T01390082  RH  069%=      5-min Rain = 0
KSW1 171425Z 18018KT 14/08 A3005 RMK A01 T01390082  RH  068%=      5-min Rain = 0
KSW1 171426Z 18016KT 14/08 A3005 RMK A01 T01400083  RH  069%=      5-min Rain = 0
KSW1 171427Z 18014KT 14/08 A3005 RMK A01 T01400083  RH  069%=      5-min Rain = 0
KSW1 171428Z 18019G24KT 14/08 A3005 RMK A01 T01400084  RH  069%=      5-min Rain = 0
KSW1 171429Z 18020KT 14/08 A3005 RMK A01 T01400083  RH  068%=      5-min Rain = 0
KSW1 171430Z 18019G24KT 14/08 A3005 RMK A01 T01400083  RH  069%=      5-min Rain = 0
KSW1 171431Z 18022KT 14/08 A3005 RMK A01 T01400083  RH  068%=      5-min Rain = 0
KSW1 171432Z 19020KT 14/08 A3005 RMK A01 T01400083  RH  069%=      5-min Rain = 0
KSW1 171433Z 19019G24KT 14/08 A3005 RMK A01 T01400083  RH  069%=      5-min Rain = 0
KSW1 171434Z 19016KT 14/08 A3005 RMK A01 T01400084  RH  069%=      5-min Rain = 0
KSW1 171435Z 19017KT 14/08 A3005 RMK A01 T01410084  RH  068%=      5-min Rain = 0
KSW1 171436Z 18019G25KT 14/08 A3005 RMK A01 T01420084  RH  068%=      5-min Rain = 0
KSW1 171437Z 18018KT 14/08 A3005 RMK A01 T01420084  RH  068%=      5-min Rain = 0
KSW1 171438Z 18020KT 14/08 A3005 RMK A01 T01420083  RH  068%=      5-min Rain = 0
KSW1 171439Z 19021G26KT 14/08 A3005 RMK A01 T01430084  RH  068%=      5-min Rain = 0
KSW1 171440Z 18017G22KT 14/08 A3005 RMK A01 T01430084  RH  068%=      5-min Rain = 0
KSW1 171441Z 19016KT 14/08 A3006 RMK A01 T01430084  RH  067%=      5-min Rain = 0
KSW1 171442Z 19020KT 14/08 A3006 RMK A01 T01440084  RH  067%=      5-min Rain = 0
KSW1 171443Z 19018KT 14/08 A3006 RMK A01 T01440083  RH  067%=      5-min Rain = 0
KSW1 171444Z 19017KT 15/08 A3006 RMK A01 T01450084  RH  067%=      5-min Rain = 0
KSW1 171445Z 19016KT 15/09 A3006 RMK A01 T01450085  RH  067%=      5-min Rain = 0
KSW1 171446Z 19017KT 15/09 A3006 RMK A01 T01470085  RH  067%=      5-min Rain = 0
KSW1 171447Z 19018KT 15/09 A3006 RMK A01 T01470085  RH  066%=      5-min Rain = 0
KSW1 171448Z 20014G19KT 15/09 A3006 RMK A01 T01470085  RH  066%=      5-min Rain = 0
KSW1 171449Z 19014KT 15/09 A3006 RMK A01 T01480085  RH  066%=      5-min Rain = 0
KSW1 171450Z 20018KT 15/09 A3006 RMK A01 T01490085  RH  066%=      5-min Rain = 0
KSW1 171451Z 19017KT 15/09 A3006 RMK A01 T01480085  RH  066%=      5-min Rain = 0
KSW1 171452Z 18018KT 15/09 A3006 RMK A01 T01480085  RH  066%=      5-min Rain = 0
KSW1 171453Z 19018KT 15/09 A3006 RMK A01 T01490085  RH  065%=      5-min Rain = 0
KSW1 171454Z 19014KT 15/09 A3006 RMK A01 T01490085  RH  066%=      5-min Rain = 0
KSW1 171455Z 19013KT 15/09 A3006 RMK A01 T01500086  RH  065%=      5-min Rain = 0
KSW1 171456Z 19014G19KT 15/09 A3006 RMK A01 T01510087  RH  065%=      5-min Rain = 0
KSW1 171457Z 20016KT 15/09 A3006 RMK A01 T01530086  RH  064%=      5-min Rain = 0
KSW1 171458Z 20015G20KT 15/09 A3006 RMK A01 T01530085  RH  064%=      5-min Rain = 0
KSW1 171459Z 19012KT 15/09 A3006 RMK A01 T01520087  RH  065%=      5-min Rain = 0
KSW1 171500Z 20015KT 15/09 A3006 RMK A01 T01540087  RH  064%=      5-min Rain = 0
KSW1 171501Z 20015KT 15/09 A3006 RMK A01 T01540086  RH  064%=      5-min Rain = 0
KSW1 171502Z 20020G26KT 15/09 A3006 RMK A01 T01540086  RH  064%=      5-min Rain = 0
KSW1 171503Z 20019G24KT 15/09 A3006 RMK A01 T01530086  RH  064%=      5-min Rain = 0
KSW1 171504Z 20017KT 15/09 A3006 RMK A01 T01530086  RH  064%=      5-min Rain = 0
KSW1 171505Z 19017KT 15/09 A3006 RMK A01 T01540086  RH  064%=      5-min Rain = 0
KSW1 171506Z 18013KT 15/09 A3006 RMK A01 T01540087  RH  064%=      5-min Rain = 0
KSW1 171507Z 18018KT 16/09 A3006 RMK A01 T01550088  RH  064%=      5-min Rain = 0
KSW1 171508Z 20016KT 16/09 A3006 RMK A01 T01550087  RH  064%=      5-min Rain = 0
KSW1 171509Z 19019KT 16/09 A3006 RMK A01 T01560087  RH  063%=      5-min Rain = 0
KSW1 171510Z 19019KT 16/09 A3006 RMK A01 T01560087  RH  063%=      5-min Rain = 0
KSW1 171511Z 19020G25KT 16/09 A3006 RMK A01 T01560086  RH  063%=      5-min Rain = 0
KSW1 171512Z 19017KT 16/09 A3006 RMK A01 T01560087  RH  063%=      5-min Rain = 0
KSW1 171513Z 19016KT 16/09 A3006 RMK A01 T01560087  RH  064%=      5-min Rain = 0
KSW1 171514Z 19015G20KT 16/09 A3006 RMK A01 T01580089  RH  063%=      5-min Rain = 0
KSW1 171515Z 19016KT 16/09 A3006 RMK A01 T01590089  RH  063%=      5-min Rain = 0
KSW1 171516Z 18017G22KT 16/09 A3006 RMK A01 T01600089  RH  063%=      5-min Rain = 0
KSW1 171517Z 19018KT 16/09 A3006 RMK A01 T01600089  RH  063%=      5-min Rain = 0
KSW1 171518Z 19015G20KT 16/09 A3006 RMK A01 T01600088  RH  063%=      5-min Rain = 0
KSW1 171519Z 19013KT 16/09 A3006 RMK A01 T01600089  RH  063%=      5-min Rain = 0
KSW1 171520Z 19013KT 16/09 A3006 RMK A01 T01630091  RH  062%=      5-min Rain = 0
KSW1 171521Z 18015KT 17/09 A3006 RMK A01 T01650091  RH  062%=      5-min Rain = 0
KSW1 171522Z 18018KT 17/09 A3006 RMK A01 T01650090  RH  061%=      5-min Rain = 0
KSW1 171523Z 19019KT 16/09 A3006 RMK A01 T01640090  RH  062%=      5-min Rain = 0
KSW1 171524Z 20017KT 16/09 A3006 RMK A01 T01640090  RH  062%=      5-min Rain = 0
KSW1 171525Z 20018KT 16/09 A3006 RMK A01 T01640090  RH  061%=      5-min Rain = 0
KSW1 171526Z 20018KT 16/09 A3006 RMK A01 T01640089  RH  061%=      5-min Rain = 0
KSW1 171527Z 19017KT 16/09 A3006 RMK A01 T01630090  RH  062%=      5-min Rain = 0
KSW1 171528Z 19019G25KT 16/09 A3006 RMK A01 T01640090  RH  061%=      5-min Rain = 0
KSW1 171529Z 19020KT 17/09 A3006 RMK A01 T01650090  RH  061%=      5-min Rain = 0
KSW1 171530Z 20019KT 17/09 A3006 RMK A01 T01650090  RH  061%=      5-min Rain = 0
KSW1 171531Z 20017KT 17/09 A3006 RMK A01 T01650090  RH  061%=      5-min Rain = 0
KSW1 171532Z 20015KT 17/09 A3006 RMK A01 T01670091  RH  061%=      5-min Rain = 0
KSW1 171533Z 19014KT 17/09 A3006 RMK A01 T01680092  RH  061%=      5-min Rain = 0
KSW1 171534Z 19018KT 17/09 A3006 RMK A01 T01700093  RH  060%=      5-min Rain = 0
KSW1 171535Z 19017G23KT 17/09 A3006 RMK A01 T01700092  RH  060%=      5-min Rain = 0
KSW1 171536Z 19017KT 17/09 A3006 RMK A01 T01700092  RH  060%=      5-min Rain = 0
KSW1 171537Z 19016KT 17/09 A3006 RMK A01 T01690093  RH  060%=      5-min Rain = 0
KSW1 171538Z 19017KT 17/09 A3006 RMK A01 T01710093  RH  060%=      5-min Rain = 0
KSW1 171539Z 19015KT 17/09 A3006 RMK A01 T01740094  RH  059%=      5-min Rain = 0
KSW1 171540Z 19017KT 18/09 A3006 RMK A01 T01750093  RH  059%=      5-min Rain = 0
KSW1 171541Z 19020KT 18/09 A3006 RMK A01 T01750093  RH  059%=      5-min Rain = 0
KSW1 171542Z 19016G22KT 17/09 A3006 RMK A01 T01740092  RH  059%=      5-min Rain = 0
KSW1 171543Z 20016G21KT 18/09 A3006 RMK A01 T01750093  RH  059%=      5-min Rain = 0
KSW1 171544Z 18017G22KT 18/09 A3006 RMK A01 T01760093  RH  058%=      5-min Rain = 0
KSW1 171545Z 18017KT 18/09 A3006 RMK A01 T01760094  RH  059%=      5-min Rain = 0
KSW1 171546Z 19019KT 18/09 A3006 RMK A01 T01770093  RH  058%=      5-min Rain = 0
KSW1 171547Z 19020KT 18/09 A3006 RMK A01 T01770093  RH  058%=      5-min Rain = 0
KSW1 171548Z 19019KT 18/09 A3006 RMK A01 T01760093  RH  058%=      5-min Rain = 0
KSW1 171549Z 19022KT 18/09 A3006 RMK A01 T01770093  RH  058%=      5-min Rain = 0
KSW1 171550Z 19018G23KT 18/09 A3006 RMK A01 T01760093  RH  058%=      5-min Rain = 0
KSW1 171551Z 19021G26KT 18/09 A3005 RMK A01 T01760093  RH  058%=      5-min Rain = 0
KSW1 171552Z 19020G26KT 18/09 A3005 RMK A01 T01770093  RH  058%=      5-min Rain = 0
KSW1 171553Z 19017G22KT 18/09 A3006 RMK A01 T01780094  RH  058%=      5-min Rain = 0
KSW1 171554Z 20020KT 18/09 A3006 RMK A01 T01790093  RH  057%=      5-min Rain = 0
KSW1 171555Z 20020KT 18/09 A3006 RMK A01 T01790093  RH  057%=      5-min Rain = 0
KSW1 171556Z 20018KT 18/09 A3006 RMK A01 T01790094  RH  058%=      5-min Rain = 0
KSW1 171557Z 21018G23KT 18/09 A3006 RMK A01 T01800093  RH  057%=      5-min Rain = 0
KSW1 171558Z 19016KT 18/09 A3006 RMK A01 T01810094  RH  057%=      5-min Rain = 0
KSW1 171559Z 20016G21KT 18/10 A3006 RMK A01 T01820096  RH  057%=      5-min Rain = 0
KSW1 171600Z 20020KT 18/09 A3006 RMK A01 T01840094  RH  056%=      5-min Rain = 0
KSW1 171601Z 19020G26KT 18/09 A3006 RMK A01 T01830092  RH  056%=      5-min Rain = 0
KSW1 171602Z 19020KT 18/09 A3006 RMK A01 T01810093  RH  057%=      5-min Rain = 0
KSW1 171603Z 19021KT 18/09 A3006 RMK A01 T01810093  RH  056%=      5-min Rain = 0
KSW1 171604Z 20016KT 18/09 A3006 RMK A01 T01820094  RH  056%=      5-min Rain = 0
KSW1 171605Z 20017G23KT 18/10 A3005 RMK A01 T01830095  RH  056%=      5-min Rain = 0
KSW1 171606Z 20017G22KT 19/10 A3006 RMK A01 T01850095  RH  056%=      5-min Rain = 0
KSW1 171607Z 20016KT 19/10 A3006 RMK A01 T01860095  RH  055%=      5-min Rain = 0
KSW1 171608Z 19019KT 19/10 A3005 RMK A01 T01860096  RH  056%=      5-min Rain = 0
KSW1 171609Z 19017G23KT 19/10 A3005 RMK A01 T01870096  RH  055%=      5-min Rain = 0
KSW1 171610Z 19018G23KT 19/10 A3005 RMK A01 T01890097  RH  055%=      5-min Rain = 0
KSW1 171611Z 19019G25KT 19/10 A3005 RMK A01 T01900096  RH  054%=      5-min Rain = 0
KSW1 171612Z 19018G23KT 19/10 A3005 RMK A01 T01900097  RH  055%=      5-min Rain = 0
KSW1 171613Z 20018G24KT 19/10 A3005 RMK A01 T01900097  RH  055%=      5-min Rain = 0
KSW1 171614Z 20021G26KT 19/10 A3005 RMK A01 T01890095  RH  054%=      5-min Rain = 0
KSW1 171615Z 20019G24KT 19/10 A3005 RMK A01 T01890095  RH  054%=      5-min Rain = 0
KSW1 171616Z 20022G29KT 19/10 A3005 RMK A01 T01880095  RH  055%=      5-min Rain = 0
KSW1 171617Z 20023KT 19/09 A3005 RMK A01 T01880094  RH  054%=      5-min Rain = 0
KSW1 171618Z 19024KT 19/09 A3005 RMK A01 T01870094  RH  055%=      5-min Rain = 0
KSW1 171619Z 20021KT 19/09 A3005 RMK A01 T01870094  RH  055%=      5-min Rain = 0
KSW1 171620Z 20019G25KT 19/10 A3005 RMK A01 T01870095  RH  055%=      5-min Rain = 0
KSW1 171621Z 19021KT 19/10 A3005 RMK A01 T01890096  RH  055%=      5-min Rain = 0
KSW1 171622Z 19018G23KT 19/10 A3005 RMK A01 T01910097  RH  054%=      5-min Rain = 0
KSW1 171623Z 19022KT 19/10 A3005 RMK A01 T01920096  RH  054%=      5-min Rain = 0
KSW1 171624Z 19019KT 19/10 A3005 RMK A01 T01910095  RH  054%=      5-min Rain = 0
KSW1 171625Z 19020KT 19/10 A3005 RMK A01 T01910095  RH  054%=      5-min Rain = 0
KSW1 171626Z 19019KT 19/10 A3005 RMK A01 T01920096  RH  054%=      5-min Rain = 0
KSW1 171627Z 20016KT 19/10 A3005 RMK A01 T01930097  RH  054%=      5-min Rain = 0
KSW1 171628Z 19021G26KT 20/10 A3005 RMK A01 T01950097  RH  053%=      5-min Rain = 0
KSW1 171629Z 20020KT 19/10 A3005 RMK A01 T01940096  RH  053%=      5-min Rain = 0
KSW1 171630Z 19018KT 19/10 A3005 RMK A01 T01930097  RH  054%=      5-min Rain = 0
KSW1 171631Z 19019G24KT 19/10 A3005 RMK A01 T01930098  RH  054%=      5-min Rain = 0
KSW1 171632Z 19019KT 20/10 A3005 RMK A01 T01950099  RH  054%=      5-min Rain = 0
KSW1 171633Z 19021G26KT 20/10 A3005 RMK A01 T01970098  RH  053%=      5-min Rain = 0
KSW1 171634Z 19020KT 20/10 A3005 RMK A01 T01970097  RH  052%=      5-min Rain = 0
KSW1 171635Z 19022KT 20/10 A3005 RMK A01 T01960096  RH  052%=      5-min Rain = 0
KSW1 171636Z 20020KT 20/10 A3005 RMK A01 T01960097  RH  053%=      5-min Rain = 0
KSW1 171637Z 20018G24KT 20/10 A3005 RMK A01 T01980097  RH  052%=      5-min Rain = 0
KSW1 171638Z 19019KT 20/10 A3005 RMK A01 T01990098  RH  052%=      5-min Rain = 0
KSW1 171639Z 20017KT 20/10 A3005 RMK A01 T02000098  RH  052%=      5-min Rain = 0
KSW1 171640Z 19018KT 20/10 A3005 RMK A01 T02000099  RH  052%=      5-min Rain = 0
KSW1 171641Z 19019KT 20/10 A3005 RMK A01 T02020098  RH  051%=      5-min Rain = 0
KSW1 171642Z 19021G26KT 20/10 A3004 RMK A01 T02030099  RH  051%=      5-min Rain = 0
KSW1 171643Z 20017KT 20/10 A3005 RMK A01 T02030099  RH  051%=      5-min Rain = 0
KSW1 171644Z 21019KT 21/10 A3005 RMK A01 T02050099  RH  051%=      5-min Rain = 0
KSW1 171645Z 20017KT 21/10 A3005 RMK A01 T02050098  RH  050%=      5-min Rain = 0
KSW1 171646Z 20016KT 21/10 A3005 RMK A01 T02060100  RH  050%=      5-min Rain = 0
KSW1 171647Z 20013KT 21/10 A3005 RMK A01 T02060101  RH  051%=      5-min Rain = 0
KSW1 171648Z 20017G22KT 21/10 A3005 RMK A01 T02080102  RH  051%=      5-min Rain = 0
KSW1 171649Z 20017KT 21/10 A3005 RMK A01 T02090098  RH  049%=      5-min Rain = 0
KSW1 171650Z 19018KT 21/10 A3005 RMK A01 T02090099  RH  049%=      5-min Rain = 0
KSW1 171651Z 20017KT 21/10 A3005 RMK A01 T02090100  RH  050%=      5-min Rain = 0
KSW1 171652Z 20017G22KT 21/10 A3005 RMK A01 T02090101  RH  050%=      5-min Rain = 0
KSW1 171653Z 20018G23KT 21/10 A3005 RMK A01 T02090100  RH  050%=      5-min Rain = 0
KSW1 171654Z 19019KT 21/10 A3005 RMK A01 T02090100  RH  050%=      5-min Rain = 0
KSW1 171655Z 20019KT 21/10 A3005 RMK A01 T02090100  RH  050%=      5-min Rain = 0
KSW1 171656Z 19017KT 21/10 A3005 RMK A01 T02080100  RH  050%=      5-min Rain = 0
KSW1 171657Z 19020KT 21/10 A3005 RMK A01 T02090101  RH  050%=      5-min Rain = 0
KSW1 171658Z 19017G22KT 21/10 A3005 RMK A01 T02090100  RH  050%=      5-min Rain = 0
KSW1 171659Z 19020KT 21/10 A3005 RMK A01 T02090100  RH  050%=      5-min Rain = 0
KSW1 171700Z 19019KT 21/10 A3005 RMK A01 T02090100  RH  049%=      5-min Rain = 0
KSW1 171701Z 19014G19KT 21/10 A3005 RMK A01 T02100101  RH  050%=      5-min Rain = 0
KSW1 171702Z 19013G20KT 21/10 A3005 RMK A01 T02120103  RH  050%=      5-min Rain = 0
KSW1 171703Z 19015KT 22/10 A3005 RMK A01 T02150102  RH  049%=      5-min Rain = 0
KSW1 171704Z 19013KT 22/10 A3005 RMK A01 T02160102  RH  048%=      5-min Rain = 0
KSW1 171705Z 19016G21KT 22/10 A3005 RMK A01 T02180103  RH  048%=      5-min Rain = 0
KSW1 171706Z 19018KT 22/10 A3004 RMK A01 T02180101  RH  047%=      5-min Rain = 0
KSW1 171707Z 20020KT 22/10 A3005 RMK A01 T02170102  RH  048%=      5-min Rain = 0
KSW1 171708Z 19018G23KT 22/10 A3004 RMK A01 T02150100  RH  048%=      5-min Rain = 0
KSW1 171709Z 19017G23KT 21/10 A3005 RMK A01 T02140102  RH  049%=      5-min Rain = 0
KSW1 171710Z 19017KT 22/10 A3005 RMK A01 T02170102  RH  048%=      5-min Rain = 0
KSW1 171711Z 20017KT 22/10 A3005 RMK A01 T02170103  RH  048%=      5-min Rain = 0
KSW1 171712Z 19013KT 22/10 A3005 RMK A01 T02180104  RH  048%=      5-min Rain = 0
KSW1 171713Z 19015KT 22/11 A3004 RMK A01 T02200106  RH  048%=      5-min Rain = 0
KSW1 171714Z 19014KT 22/11 A3005 RMK A01 T02220106  RH  048%=      5-min Rain = 0
KSW1 171715Z 18017KT 22/11 A3004 RMK A01 T02240106  RH  047%=      5-min Rain = 0
KSW1 171716Z 18020KT 22/10 A3004 RMK A01 T02230104  RH  047%=      5-min Rain = 0
KSW1 171717Z 19018KT 22/11 A3004 RMK A01 T02210105  RH  048%=      5-min Rain = 0
KSW1 171718Z 19016G22KT 22/11 A3004 RMK A01 T02210105  RH  048%=      5-min Rain = 0
KSW1 171719Z 19018KT 22/10 A3004 RMK A01 T02210104  RH  047%=      5-min Rain = 0
KSW1 171720Z 20018KT 22/10 A3004 RMK A01 T02220103  RH  047%=      5-min Rain = 0
KSW1 171721Z 21016KT 22/10 A3004 RMK A01 T02230103  RH  047%=      5-min Rain = 0
KSW1 171722Z 21016KT 22/10 A3004 RMK A01 T02240103  RH  046%=      5-min Rain = 0
KSW1 171723Z 19019KT 22/10 A3004 RMK A01 T02240103  RH  046%=      5-min Rain = 0
KSW1 171724Z 20016KT 23/10 A3004 RMK A01 T02250102  RH  046%=      5-min Rain = 0
KSW1 171725Z 19020KT 23/10 A3004 RMK A01 T02250103  RH  046%=      5-min Rain = 0
KSW1 171726Z 19017KT 22/10 A3004 RMK A01 T02230102  RH  046%=      5-min Rain = 0
KSW1 171727Z 19017G23KT 22/10 A3004 RMK A01 T02220104  RH  047%=      5-min Rain = 0
KSW1 171728Z 20018KT 22/10 A3004 RMK A01 T02240102  RH  046%=      5-min Rain = 0
KSW1 171729Z 20013KT 23/10 A3004 RMK A01 T02250103  RH  046%=      5-min Rain = 0
KSW1 171730Z 19015G20KT 23/10 A3004 RMK A01 T02250103  RH  046%=      5-min Rain = 0
KSW1 171731Z 21017KT 23/10 A3004 RMK A01 T02270104  RH  046%=      5-min Rain = 0
KSW1 171732Z 20013G18KT 23/10 A3004 RMK A01 T02280103  RH  045%=      5-min Rain = 0
KSW1 171733Z 20018KT 23/11 A3004 RMK A01 T02310105  RH  045%=      5-min Rain = 0
KSW1 171734Z 20017KT 23/10 A3003 RMK A01 T02320104  RH  044%=      5-min Rain = 0
KSW1 171735Z 20016KT 23/10 A3004 RMK A01 T02300104  RH  045%=      5-min Rain = 0
KSW1 171736Z 21016G21KT 23/11 A3003 RMK A01 T02310105  RH  045%=      5-min Rain = 0
KSW1 171737Z 20017KT 23/10 A3003 RMK A01 T02310104  RH  044%=      5-min Rain = 0
KSW1 171738Z 20015KT 23/11 A3003 RMK A01 T02310106  RH  045%=      5-min Rain = 0
KSW1 171739Z 21015KT 23/11 A3003 RMK A01 T02320107  RH  045%=      5-min Rain = 0
KSW1 171740Z 19017KT 24/11 A3003 RMK A01 T02350106  RH  044%=      5-min Rain = 0
KSW1 171741Z 20018KT 24/11 A3003 RMK A01 T02350105  RH  044%=      5-min Rain = 0
KSW1 171742Z 20014KT 23/11 A3003 RMK A01 T02340106  RH  044%=      5-min Rain = 0
KSW1 171743Z 21017KT 24/11 A3003 RMK A01 T02350105  RH  044%=      5-min Rain = 0
KSW1 171744Z 19019KT 24/11 A3003 RMK A01 T02360105  RH  043%=      5-min Rain = 0
KSW1 171745Z 19016KT 24/11 A3003 RMK A01 T02360105  RH  043%=      5-min Rain = 0
KSW1 171746Z 21019G24KT 24/10 A3003 RMK A01 T02370104  RH  043%=      5-min Rain = 0
KSW1 171747Z 21018G23KT 24/10 A3003 RMK A01 T02370103  RH  043%=      5-min Rain = 0
KSW1 171748Z 20020KT 24/10 A3003 RMK A01 T02370103  RH  043%=      5-min Rain = 0
KSW1 171749Z 21015G20KT 24/10 A3003 RMK A01 T02370103  RH  043%=      5-min Rain = 0
KSW1 171750Z 21017KT 24/10 A3003 RMK A01 T02390103  RH  042%=      5-min Rain = 0
KSW1 171751Z 20014KT 24/11 A3003 RMK A01 T02400105  RH  043%=      5-min Rain = 0
KSW1 171752Z 21013KT 24/11 A3003 RMK A01 T02410106  RH  042%=      5-min Rain = 0
KSW1 171753Z 21011G16KT 24/11 A3003 RMK A01 T02420106  RH  042%=      5-min Rain = 0
KSW1 171754Z 21015G21KT 25/11 A3003 RMK A01 T02460109  RH  042%=      5-min Rain = 0
KSW1 171755Z 20017KT 25/11 A3002 RMK A01 T02480105  RH  040%=      5-min Rain = 0
KSW1 171756Z 20017G22KT 24/10 A3002 RMK A01 T02440103  RH  041%=      5-min Rain = 0
KSW1 171757Z 19019KT 24/10 A3002 RMK A01 T02410103  RH  042%=      5-min Rain = 0
KSW1 171758Z 19017KT 24/10 A3002 RMK A01 T02400103  RH  042%=      5-min Rain = 0
KSW1 171759Z 19018G23KT 24/10 A3002 RMK A01 T02410103  RH  042%=      5-min Rain = 0
KSW1 171800Z 19018G23KT 24/10 A3002 RMK A01 T02410102  RH  042%=      5-min Rain = 0
KSW1 171801Z 19018G23KT 24/10 A3002 RMK A01 T02420104  RH  042%=      5-min Rain = 0
KSW1 171802Z 20018G23KT 24/10 A3002 RMK A01 T02420102  RH  041%=      5-min Rain = 0
KSW1 171803Z 20019KT 24/10 A3002 RMK A01 T02420104  RH  041%=      5-min Rain = 0
KSW1 171804Z 20020G25KT 24/10 A3001 RMK A01 T02430101  RH  041%=      5-min Rain = 0
KSW1 171805Z 20016KT 24/10 A3002 RMK A01 T02430102  RH  041%=      5-min Rain = 0
KSW1 171806Z 20015KT 25/10 A3001 RMK A01 T02450104  RH  041%=      5-min Rain = 0
KSW1 171807Z 21015KT 25/11 A3001 RMK A01 T02490106  RH  040%=      5-min Rain = 0
KSW1 171808Z 19017G22KT 25/10 A3001 RMK A01 T02510104  RH  040%=      5-min Rain = 0
KSW1 171809Z 20018G23KT 25/10 A3001 RMK A01 T02510103  RH  039%=      5-min Rain = 0
KSW1 171810Z 20020G26KT 25/10 A3001 RMK A01 T02480102  RH  040%=      5-min Rain = 0
KSW1 171811Z 19019KT 25/10 A3001 RMK A01 T02460101  RH  040%=      5-min Rain = 0
KSW1 171812Z 19019KT 25/10 A3001 RMK A01 T02450101  RH  040%=      5-min Rain = 0
KSW1 171813Z 19020KT 25/10 A3001 RMK A01 T02450101  RH  040%=      5-min Rain = 0
KSW1 171814Z 19016G21KT 25/10 A3001 RMK A01 T02450102  RH  040%=      5-min Rain = 0
KSW1 171815Z 20016KT 25/10 A3001 RMK A01 T02460103  RH  041%=      5-min Rain = 0
KSW1 171816Z 21020KT 25/10 A3001 RMK A01 T02480100  RH  039%=      5-min Rain = 0
KSW1 171817Z 20018KT 25/10 A3001 RMK A01 T02490099  RH  039%=      5-min Rain = 0
KSW1 171818Z 21016KT 25/10 A3001 RMK A01 T02510100  RH  039%=      5-min Rain = 0
KSW1 171819Z 20014KT 25/10 A3001 RMK A01 T02540101  RH  038%=      5-min Rain = 0
KSW1 171820Z 20015G22KT 26/10 A30 RMK A01 T02560104  RH  038%=      5-min Rain = 0
KSW1 171821Z 19017KT 26/11 A30 RMK A01 T02560105  RH  038%=      5-min Rain = 0
KSW1 171822Z 19017KT 26/11 A30 RMK A01 T02560105  RH  039%=      5-min Rain = 0
KSW1 171823Z 19019G25KT 26/10 A30 RMK A01 T02550104  RH  039%=      5-min Rain = 0
KSW1 171824Z 20018G24KT 25/10 A30 RMK A01 T02530102  RH  038%=      5-min Rain = 0
KSW1 171825Z 21015KT 25/10 A30 RMK A01 T02510104  RH  039%=      5-min Rain = 0
KSW1 171826Z 20015G22KT 25/10 A30 RMK A01 T02530104  RH  039%=      5-min Rain = 0
KSW1 171827Z 20017KT 26/10 A30 RMK A01 T02550103  RH  038%=      5-min Rain = 0
KSW1 171828Z 20020KT 25/10 A30 RMK A01 T02530102  RH  038%=      5-min Rain = 0
KSW1 171829Z 20018KT 25/10 A30 RMK A01 T02500100  RH  039%=      5-min Rain = 0
KSW1 171830Z 19015G21KT 25/11 A30 RMK A01 T02510105  RH  040%=      5-min Rain = 0
KSW1 171831Z 19019G25KT 26/10 A30 RMK A01 T02550103  RH  038%=      5-min Rain = 0
KSW1 171832Z 19018G24KT 26/10 A30 RMK A01 T02560103  RH  038%=      5-min Rain = 0
KSW1 171833Z 19019G24KT 26/10 A30 RMK A01 T02550103  RH  038%=      5-min Rain = 0
KSW1 171834Z 20018KT 26/10 A30 RMK A01 T02550102  RH  038%=      5-min Rain = 0
KSW1 171835Z 20016KT 26/10 A30 RMK A01 T02550103  RH  039%=      5-min Rain = 0
KSW1 171836Z 19015G20KT 26/10 A30 RMK A01 T02570104  RH  038%=      5-min Rain = 0
KSW1 171837Z 20017G22KT 26/11 A30 RMK A01 T02610106  RH  038%=      5-min Rain = 0
KSW1 171838Z 20018KT 26/10 A30 RMK A01 T02600103  RH  037%=      5-min Rain = 0
KSW1 171839Z 20017KT 26/10 A2999 RMK A01 T02570101  RH  037%=      5-min Rain = 0
KSW1 171840Z 21015G20KT 26/10 A2999 RMK A01 T02550103  RH  038%=      5-min Rain = 0
KSW1 171841Z 19017KT 25/10 A2999 RMK A01 T02540103  RH  038%=      5-min Rain = 0
KSW1 171842Z 20018KT 25/10 A2999 RMK A01 T02540103  RH  038%=      5-min Rain = 0
KSW1 171843Z 21017KT 26/10 A2999 RMK A01 T02560103  RH  038%=      5-min Rain = 0
KSW1 171844Z 21015KT 26/11 A2999 RMK A01 T02580105  RH  038%=      5-min Rain = 0
KSW1 171845Z 20017G22KT 26/10 A2999 RMK A01 T02610104  RH  037%=      5-min Rain = 0
KSW1 171846Z 20018KT 26/10 A2999 RMK A01 T02610104  RH  037%=      5-min Rain = 0
KSW1 171847Z 20018KT 26/10 A2999 RMK A01 T02600104  RH  038%=      5-min Rain = 0
KSW1 171848Z 21018KT 26/10 A2999 RMK A01 T02590103  RH  038%=      5-min Rain = 0
KSW1 171849Z 20016KT 26/11 A2999 RMK A01 T02590105  RH  038%=      5-min Rain = 0
KSW1 171850Z 20019KT 26/11 A2999 RMK A01 T02610105  RH  038%=      5-min Rain = 0
KSW1 171851Z 22017KT 26/10 A2999 RMK A01 T02600102  RH  037%=      5-min Rain = 0
KSW1 171852Z 21019KT 26/10 A2998 RMK A01 T02590104  RH  038%=      5-min Rain = 0
KSW1 171853Z 20017G22KT 26/10 A2999 RMK A01 T02590104  RH  038%=      5-min Rain = 0
KSW1 171854Z 20017KT 26/10 A2998 RMK A01 T02600103  RH  037%=      5-min Rain = 0
KSW1 171855Z 20017KT 26/10 A2998 RMK A01 T02610103  RH  037%=      5-min Rain = 0
KSW1 171856Z 20016KT 26/11 A2998 RMK A01 T02620105  RH  037%=      5-min Rain = 0
KSW1 171857Z 20018KT 26/10 A2998 RMK A01 T02630104  RH  037%=      5-min Rain = 0
KSW1 171858Z 20016G21KT 26/10 A2998 RMK A01 T02610104  RH  037%=      5-min Rain = 0
KSW1 171859Z 19017KT 26/11 A2998 RMK A01 T02610106  RH  038%=      5-min Rain = 0
KSW1 171900Z 20017G22KT 26/11 A2998 RMK A01 T02630106  RH  037%=      5-min Rain = 0
KSW1 171901Z 21015KT 27/11 A2998 RMK A01 T02650107  RH  037%=      5-min Rain = 0
KSW1 171902Z 19015KT 27/11 A2998 RMK A01 T02660106  RH  037%=      5-min Rain = 0
KSW1 171903Z 20014KT 26/11 A2997 RMK A01 T02640105  RH  037%=      5-min Rain = 0
KSW1 171904Z 20017G22KT 26/11 A2997 RMK A01 T02630105  RH  037%=      5-min Rain = 0
KSW1 171905Z 20019KT 26/10 A2997 RMK A01 T02630104  RH  037%=      5-min Rain = 0
KSW1 171906Z 19018G24KT 26/10 A2997 RMK A01 T02620102  RH  037%=      5-min Rain = 0
KSW1 171907Z 19016KT 26/11 A2997 RMK A01 T02610107  RH  038%=      5-min Rain = 0
KSW1 171908Z 19016KT 26/11 A2997 RMK A01 T02640106  RH  037%=      5-min Rain = 0
KSW1 171909Z 20013KT 27/11 A2997 RMK A01 T02650108  RH  037%=      5-min Rain = 0
KSW1 171910Z 21016KT 27/11 A2997 RMK A01 T02680106  RH  036%=      5-min Rain = 0
KSW1 171911Z 21016KT 27/11 A2997 RMK A01 T02690105  RH  036%=      5-min Rain = 0
KSW1 171912Z 21015G20KT 27/11 A2997 RMK A01 T02660106  RH  037%=      5-min Rain = 0
KSW1 171913Z 20016G21KT 27/11 A2997 RMK A01 T02670105  RH  036%=      5-min Rain = 0
KSW1 171914Z 20016KT 27/10 A2997 RMK A01 T02670104  RH  036%=      5-min Rain = 0
KSW1 171915Z 20017G23KT 27/11 A2997 RMK A01 T02680105  RH  036%=      5-min Rain = 0
KSW1 171916Z 21019KT 27/11 A2997 RMK A01 T02710106  RH  036%=      5-min Rain = 0
KSW1 171917Z 21015KT 27/10 A2997 RMK A01 T02710104  RH  035%=      5-min Rain = 0
KSW1 171918Z 21014KT 27/11 A2996 RMK A01 T02690105  RH  036%=      5-min Rain = 0
KSW1 171919Z 19016KT 27/11 A2996 RMK A01 T02690108  RH  036%=      5-min Rain = 0
KSW1 171920Z 19018KT 27/11 A2996 RMK A01 T02690106  RH  036%=      5-min Rain = 0
KSW1 171921Z 20016G21KT 27/11 A2996 RMK A01 T02690107  RH  036%=      5-min Rain = 0
KSW1 171922Z 20015KT 27/11 A2996 RMK A01 T02690107  RH  036%=      5-min Rain = 0
KSW1 171923Z 19019KT 27/11 A2996 RMK A01 T02710107  RH  036%=      5-min Rain = 0
KSW1 171924Z 20017G22KT 27/11 A2996 RMK A01 T02710106  RH  036%=      5-min Rain = 0
KSW1 171925Z 20017KT 27/11 A2996 RMK A01 T02720106  RH  036%=      5-min Rain = 0
KSW1 171926Z 21016KT 27/11 A2996 RMK A01 T02720107  RH  036%=      5-min Rain = 0
KSW1 171927Z 21015KT 27/11 A2996 RMK A01 T02720106  RH  035%=      5-min Rain = 0
KSW1 171928Z 20012KT 27/11 A2996 RMK A01 T02730107  RH  035%=      5-min Rain = 0
KSW1 171929Z 20013KT 28/11 A2996 RMK A01 T02750107  RH  035%=      5-min Rain = 0
KSW1 171930Z 20014KT 28/11 A2996 RMK A01 T02770109  RH  035%=      5-min Rain = 0
KSW1 171931Z 21016KT 28/11 A2996 RMK A01 T02770107  RH  035%=      5-min Rain = 0
KSW1 171932Z 20013KT 28/11 A2996 RMK A01 T02750108  RH  035%=      5-min Rain = 0
KSW1 171933Z 19013KT 28/11 A2996 RMK A01 T02750109  RH  036%=      5-min Rain = 0
KSW1 171934Z 19014KT 28/11 A2996 RMK A01 T02750107  RH  035%=      5-min Rain = 0
KSW1 171935Z 19011KT 28/11 A2996 RMK A01 T02750108  RH  035%=      5-min Rain = 0
KSW1 171936Z 20010KT 28/11 A2996 RMK A01 T02760111  RH  036%=      5-min Rain = 0
KSW1 171937Z 21012KT 28/11 A2996 RMK A01 T02790111  RH  035%=      5-min Rain = 0
KSW1 171938Z 22013KT 28/11 A2996 RMK A01 T02800106  RH  034%=      5-min Rain = 0
KSW1 171939Z 21014KT 28/11 A2996 RMK A01 T02780106  RH  034%=      5-min Rain = 0
KSW1 171940Z 19015KT 28/11 A2996 RMK A01 T02770106  RH  034%=      5-min Rain = 0
KSW1 171941Z 19015KT 28/11 A2996 RMK A01 T02760107  RH  035%=      5-min Rain = 0
KSW1 171942Z 21016KT 28/11 A2996 RMK A01 T02760108  RH  035%=      5-min Rain = 0
KSW1 171943Z 20014KT 28/11 A2996 RMK A01 T02780108  RH  035%=      5-min Rain = 0
KSW1 171944Z 20015KT 28/11 A2996 RMK A01 T02770106  RH  034%=      5-min Rain = 0
KSW1 171945Z 20013KT 28/11 A2995 RMK A01 T02770106  RH  034%=      5-min Rain = 0
KSW1 171946Z 20015KT 28/11 A2995 RMK A01 T02760106  RH  035%=      5-min Rain = 0
KSW1 171947Z 20013KT 28/10 A2995 RMK A01 T02770104  RH  034%=      5-min Rain = 0
KSW1 171948Z 20013KT 28/10 A2995 RMK A01 T02780104  RH  034%=      5-min Rain = 0
KSW1 171949Z 21012G17KT 28/11 A2995 RMK A01 T02790105  RH  034%=      5-min Rain = 0
KSW1 171950Z 21016KT 28/10 A2995 RMK A01 T02810104  RH  033%=      5-min Rain = 0
KSW1 171951Z 21015KT 28/11 A2995 RMK A01 T02810105  RH  033%=      5-min Rain = 0
KSW1 171952Z 22014KT 28/10 A2995 RMK A01 T02830101  RH  032%=      5-min Rain = 0
KSW1 171953Z 21014G19KT 28/10 A2995 RMK A01 T02830097  RH  031%=      5-min Rain = 0
KSW1 171954Z 22015KT 28/10 A2995 RMK A01 T02830095  RH  031%=      5-min Rain = 0
KSW1 171955Z 21014KT 28/10 A2995 RMK A01 T02810095  RH  031%=      5-min Rain = 0
KSW1 171956Z 20012KT 28/10 A2994 RMK A01 T02810099  RH  032%=      5-min Rain = 0
KSW1 171957Z 19016KT 28/11 A2994 RMK A01 T02830106  RH  033%=      5-min Rain = 0
KSW1 171958Z 19016KT 28/11 A2994 RMK A01 T02820106  RH  033%=      5-min Rain = 0
KSW1 171959Z 19015KT 28/10 A2994 RMK A01 T02820104  RH  033%=      5-min Rain = 0
KSW1 172000Z 19015KT 28/10 A2994 RMK A01 T02810103  RH  033%=      5-min Rain = 0
KSW1 172001Z 20013G18KT 28/10 A2994 RMK A01 T02800102  RH  033%=      5-min Rain = 0
KSW1 172002Z 19016KT 28/10 A2994 RMK A01 T02790102  RH  033%=      5-min Rain = 0
KSW1 172003Z 19016G21KT 28/10 A2994 RMK A01 T02810103  RH  033%=      5-min Rain = 0
KSW1 172004Z 20017KT 28/10 A2994 RMK A01 T02820102  RH  032%=      5-min Rain = 0
KSW1 172005Z 20015KT 28/10 A2994 RMK A01 T02820101  RH  032%=      5-min Rain = 0
KSW1 172006Z 20015KT 28/10 A2994 RMK A01 T02820103  RH  033%=      5-min Rain = 0
KSW1 172007Z 18012G17KT 28/10 A2994 RMK A01 T02830104  RH  033%=      5-min Rain = 0
KSW1 172008Z 20014KT 29/10 A2993 RMK A01 T02850101  RH  032%=      5-min Rain = 0
KSW1 172009Z 20015KT 29/10 A2993 RMK A01 T02850102  RH  032%=      5-min Rain = 0
KSW1 172010Z 19015KT 29/10 A2993 RMK A01 T02850102  RH  032%=      5-min Rain = 0
KSW1 172011Z 19015KT 29/10 A2993 RMK A01 T02850103  RH  032%=      5-min Rain = 0
KSW1 172012Z 19020KT 29/10 A2993 RMK A01 T02850103  RH  032%=      5-min Rain = 0
KSW1 172013Z 19017G22KT 28/10 A2993 RMK A01 T02840101  RH  032%=      5-min Rain = 0
KSW1 172014Z 20014KT 28/10 A2993 RMK A01 T02820102  RH  033%=      5-min Rain = 0
KSW1 172015Z 20016KT 28/10 A2993 RMK A01 T02820102  RH  032%=      5-min Rain = 0
KSW1 172016Z 19017KT 28/10 A2993 RMK A01 T02820102  RH  033%=      5-min Rain = 0
KSW1 172017Z 21016G22KT 28/10 A2993 RMK A01 T02830103  RH  032%=      5-min Rain = 0
KSW1 172018Z 21013KT 29/10 A2993 RMK A01 T02860100  RH  031%=      5-min Rain = 0
KSW1 172019Z 19014KT 29/10 A2993 RMK A01 T02870103  RH  032%=      5-min Rain = 0
KSW1 172020Z 19016KT 29/10 A2993 RMK A01 T02880102  RH  031%=      5-min Rain = 0
KSW1 172021Z 19019KT 29/10 A2992 RMK A01 T02870101  RH  031%=      5-min Rain = 0
KSW1 172022Z 20019G26KT 29/10 A2992 RMK A01 T02860101  RH  031%=      5-min Rain = 0
KSW1 172023Z 21017KT 29/10 A2993 RMK A01 T02860099  RH  031%=      5-min Rain = 0
KSW1 172024Z 20012KT 29/10 A2992 RMK A01 T02850101  RH  032%=      5-min Rain = 0
KSW1 172025Z 20011KT 29/10 A2992 RMK A01 T02860100  RH  031%=      5-min Rain = 0
KSW1 172026Z 20013G19KT 29/10 A2992 RMK A01 T02870103  RH  032%=      5-min Rain = 0
KSW1 172027Z 22016KT 29/10 A2992 RMK A01 T02890100  RH  031%=      5-min Rain = 0
KSW1 172028Z 21016KT 29/10 A2992 RMK A01 T02890098  RH  030%=      5-min Rain = 0
KSW1 172029Z 20015G20KT 29/10 A2992 RMK A01 T02880100  RH  031%=      5-min Rain = 0
KSW1 172030Z 20018KT 29/10 A2992 RMK A01 T02880098  RH  031%=      5-min Rain = 0
KSW1 172031Z 21014KT 29/10 A2992 RMK A01 T02880099  RH  031%=      5-min Rain = 0
KSW1 172032Z 19015KT 29/10 A2992 RMK A01 T02890100  RH  031%=      5-min Rain = 0
KSW1 172033Z 20018KT 29/10 A2992 RMK A01 T02890101  RH  031%=      5-min Rain = 0
KSW1 172034Z 22021KT 29/10 A2992 RMK A01 T02900098  RH  030%=      5-min Rain = 0
KSW1 172035Z 22019KT 29/09 A2992 RMK A01 T02890094  RH  030%=      5-min Rain = 0
KSW1 172036Z 21014G19KT 29/10 A2992 RMK A01 T02870095  RH  030%=      5-min Rain = 0
KSW1 172037Z 21016KT 29/10 A2992 RMK A01 T02880098  RH  031%=      5-min Rain = 0
KSW1 172038Z 21016KT 29/10 A2992 RMK A01 T02890099  RH  030%=      5-min Rain = 0
KSW1 172039Z 22017KT 29/10 A2991 RMK A01 T02900099  RH  031%=      5-min Rain = 0
KSW1 172040Z 23016KT 29/10 A2991 RMK A01 T02890098  RH  030%=      5-min Rain = 0
KSW1 172041Z 21013KT 29/10 A2991 RMK A01 T02880098  RH  031%=      5-min Rain = 0
KSW1 172042Z 20017KT 29/10 A2991 RMK A01 T02880098  RH  031%=      5-min Rain = 0
KSW1 172043Z 20017G22KT 29/10 A2991 RMK A01 T02880098  RH  031%=      5-min Rain = 0
KSW1 172044Z 20019KT 29/10 A2991 RMK A01 T02890098  RH  030%=      5-min Rain = 0
KSW1 172045Z 21017KT 29/10 A2991 RMK A01 T02890100  RH  031%=      5-min Rain = 0
KSW1 172046Z 21018KT 29/10 A2991 RMK A01 T02890099  RH  031%=      5-min Rain = 0
KSW1 172047Z 21017KT 29/10 A2991 RMK A01 T02890097  RH  030%=      5-min Rain = 0
KSW1 172048Z 21013KT 29/10 A2991 RMK A01 T02890099  RH  031%=      5-min Rain = 0
KSW1 172049Z 21013G19KT 29/10 A2991 RMK A01 T02900099  RH  030%=      5-min Rain = 0
KSW1 172050Z 20013G21KT 29/10 A2991 RMK A01 T02920102  RH  031%=      5-min Rain = 0
KSW1 172051Z 20018G23KT 29/10 A2991 RMK A01 T02940098  RH  030%=      5-min Rain = 0
KSW1 172052Z 20016KT 29/10 A2991 RMK A01 T02930097  RH  029%=      5-min Rain = 0
KSW1 172053Z 19018KT 29/10 A2991 RMK A01 T02920098  RH  030%=      5-min Rain = 0
KSW1 172054Z 20019KT 29/10 A299 RMK A01 T02910098  RH  030%=      5-min Rain = 0
KSW1 172055Z 21014KT 29/10 A2991 RMK A01 T02910100  RH  030%=      5-min Rain = 0
KSW1 172056Z 20015G20KT 29/10 A2991 RMK A01 T02930100  RH  030%=      5-min Rain = 0
KSW1 172057Z 20014KT 29/10 A299 RMK A01 T02940101  RH  030%=      5-min Rain = 0
KSW1 172058Z 19020G26KT 30/10 A299 RMK A01 T02950099  RH  029%=      5-min Rain = 0
KSW1 172059Z 20018KT 29/10 A299 RMK A01 T02940098  RH  029%=      5-min Rain = 0
KSW1 172100Z 20016KT 29/10 A2991 RMK A01 T02930099  RH  030%=      5-min Rain = 0
KSW1 172101Z 20015KT 29/10 A299 RMK A01 T02940098  RH  029%=      5-min Rain = 0
KSW1 172102Z 20014KT 29/10 A299 RMK A01 T02920099  RH  030%=      5-min Rain = 0
KSW1 172103Z 20014KT 29/10 A299 RMK A01 T02920100  RH  030%=      5-min Rain = 0
KSW1 172104Z 20016KT 29/10 A299 RMK A01 T02930101  RH  030%=      5-min Rain = 0
KSW1 172105Z 21014G20KT 30/10 A299 RMK A01 T02950102  RH  030%=      5-min Rain = 0
KSW1 172106Z 21020KT 30/10 A299 RMK A01 T02970098  RH  029%=      5-min Rain = 0
KSW1 172107Z 21018G23KT 30/10 A299 RMK A01 T02950098  RH  029%=      5-min Rain = 0
KSW1 172108Z 19019KT 29/10 A299 RMK A01 T02940098  RH  030%=      5-min Rain = 0
KSW1 172109Z 20021KT 29/10 A299 RMK A01 T02930098  RH  030%=      5-min Rain = 0
KSW1 172110Z 20018G25KT 29/10 A299 RMK A01 T02930096  RH  029%=      5-min Rain = 0
KSW1 172111Z 22014G19KT 29/10 A299 RMK A01 T02930097  RH  030%=      5-min Rain = 0
KSW1 172112Z 22013KT 29/10 A299 RMK A01 T02940098  RH  030%=      5-min Rain = 0
KSW1 172113Z 22013KT 30/10 A299 RMK A01 T02950100  RH  030%=      5-min Rain = 0
KSW1 172114Z 21016KT 30/10 A299 RMK A01 T02950100  RH  030%=      5-min Rain = 0
KSW1 172115Z 20013KT 30/10 A299 RMK A01 T02950101  RH  030%=      5-min Rain = 0
KSW1 172116Z 21015G21KT 30/10 A299 RMK A01 T02950102  RH  030%=      5-min Rain = 0
KSW1 172117Z 19013KT 30/10 A299 RMK A01 T02960103  RH  030%=      5-min Rain = 0
KSW1 172118Z 20019G25KT 30/10 A299 RMK A01 T02960100  RH  030%=      5-min Rain = 0
KSW1 172119Z 20018KT 30/10 A299 RMK A01 T02960097  RH  029%=      5-min Rain = 0
KSW1 172120Z 20015KT 29/10 A299 RMK A01 T02930095  RH  029%=      5-min Rain = 0
KSW1 172121Z 21016KT 29/10 A299 RMK A01 T02930097  RH  029%=      5-min Rain = 0
KSW1 172122Z 20016KT 29/10 A299 RMK A01 T02940097  RH  029%=      5-min Rain = 0
KSW1 172123Z 20015KT 29/10 A299 RMK A01 T02930099  RH  030%=      5-min Rain = 0
KSW1 172124Z 21018KT 29/10 A299 RMK A01 T02940099  RH  030%=      5-min Rain = 0
KSW1 172125Z 22014KT 30/10 A299 RMK A01 T02950097  RH  029%=      5-min Rain = 0
KSW1 172126Z 20012G18KT 30/10 A299 RMK A01 T02950098  RH  029%=      5-min Rain = 0
KSW1 172127Z 20013G19KT 30/10 A299 RMK A01 T02950098  RH  029%=      5-min Rain = 0
KSW1 172128Z 20014KT 30/10 A299 RMK A01 T02960097  RH  029%=      5-min Rain = 0
KSW1 172129Z 20013G18KT 30/10 A299 RMK A01 T02960098  RH  029%=      5-min Rain = 0
KSW1 172130Z 20016G21KT 30/10 A299 RMK A01 T02960099  RH  030%=      5-min Rain = 0
KSW1 172131Z 21016KT 30/10 A299 RMK A01 T02950099  RH  030%=      5-min Rain = 0
KSW1 172132Z 22015G20KT 30/10 A299 RMK A01 T02950099  RH  030%=      5-min Rain = 0
KSW1 172133Z 21016KT 29/10 A299 RMK A01 T02940099  RH  030%=      5-min Rain = 0
KSW1 172134Z 21015KT 30/10 A299 RMK A01 T02960099  RH  030%=      5-min Rain = 0
KSW1 172135Z 20018KT 30/10 A299 RMK A01 T02970099  RH  029%=      5-min Rain = 0
KSW1 172136Z 21017KT 30/10 A299 RMK A01 T02960098  RH  029%=      5-min Rain = 0
KSW1 172137Z 21014KT 29/10 A299 RMK A01 T02940098  RH  030%=      5-min Rain = 0
KSW1 172138Z 22016KT 29/10 A299 RMK A01 T02940100  RH  030%=      5-min Rain = 0
KSW1 172139Z 21016KT 29/10 A299 RMK A01 T02940099  RH  030%=      5-min Rain = 0
KSW1 172140Z 20015KT 29/10 A299 RMK A01 T02940098  RH  029%=      5-min Rain = 0
KSW1 172141Z 22014G21KT 30/10 A299 RMK A01 T02950099  RH  030%=      5-min Rain = 0
KSW1 172142Z 21011KT 29/10 A299 RMK A01 T02940099  RH  030%=      5-min Rain = 0
KSW1 172143Z 20013KT 30/10 A299 RMK A01 T02960101  RH  030%=      5-min Rain = 0
KSW1 172144Z 21015G24KT 30/10 A299 RMK A01 T02960102  RH  030%=      5-min Rain = 0
KSW1 172145Z 20017KT 30/10 A299 RMK A01 T02970098  RH  029%=      5-min Rain = 0
KSW1 172146Z 21018KT 30/10 A299 RMK A01 T02960097  RH  029%=      5-min Rain = 0
KSW1 172147Z 20018KT 30/10 A299 RMK A01 T02950096  RH  029%=      5-min Rain = 0
KSW1 172148Z 20015G22KT 30/10 A299 RMK A01 T02950098  RH  029%=      5-min Rain = 0
KSW1 172149Z 21018KT 30/10 A299 RMK A01 T02960097  RH  029%=      5-min Rain = 0
KSW1 172150Z 21016KT 30/10 A299 RMK A01 T02960098  RH  029%=      5-min Rain = 0
KSW1 172151Z 21014G19KT 30/10 A299 RMK A01 T02950098  RH  029%=      5-min Rain = 0
KSW1 172152Z 21016KT 30/10 A299 RMK A01 T02950098  RH  029%=      5-min Rain = 0
KSW1 172153Z 20015KT 30/10 A299 RMK A01 T02950098  RH  029%=      5-min Rain = 0
KSW1 172154Z 20014KT 30/10 A299 RMK A01 T02950099  RH  029%=      5-min Rain = 0
KSW1 172155Z 21014KT 30/10 A299 RMK A01 T02950099  RH  030%=      5-min Rain = 0
KSW1 172156Z 20015G20KT 30/10 A299 RMK A01 T02950100  RH  030%=      5-min Rain = 0
KSW1 172157Z 20017KT 30/10 A299 RMK A01 T02950098  RH  029%=      5-min Rain = 0
KSW1 172158Z 20013KT 29/10 A299 RMK A01 T02940099  RH  030%=      5-min Rain = 0
KSW1 172159Z 19014KT 29/10 A299 RMK A01 T02940100  RH  030%=      5-min Rain = 0
KSW1 172200Z 19016KT 29/10 A299 RMK A01 T02940100  RH  030%=      5-min Rain = 0
KSW1 172201Z 20013KT 29/10 A299 RMK A01 T02940101  RH  030%=      5-min Rain = 0
KSW1 172202Z 20013KT 29/10 A299 RMK A01 T02940100  RH  030%=      5-min Rain = 0
KSW1 172203Z 21018KT 29/10 A299 RMK A01 T02940100  RH  030%=      5-min Rain = 0
KSW1 172204Z 20015KT 29/10 A299 RMK A01 T02940100  RH  030%=      5-min Rain = 0
KSW1 172205Z 20013KT 30/10 A299 RMK A01 T02950100  RH  030%=      5-min Rain = 0
KSW1 172206Z 20014KT 30/10 A299 RMK A01 T02950100  RH  030%=      5-min Rain = 0
KSW1 172207Z 19013KT 30/10 A299 RMK A01 T02950100  RH  030%=      5-min Rain = 0
KSW1 172208Z 20013KT 30/10 A299 RMK A01 T02950101  RH  030%=      5-min Rain = 0
KSW1 172209Z 20013KT 29/10 A299 RMK A01 T02940101  RH  030%=      5-min Rain = 0
KSW1 172210Z 20017KT 29/10 A2989 RMK A01 T02940098  RH  029%=      5-min Rain = 0
KSW1 172211Z 20015KT 29/10 A2989 RMK A01 T02940096  RH  029%=      5-min Rain = 0
KSW1 172212Z 20016G21KT 29/10 A2989 RMK A01 T02930097  RH  029%=      5-min Rain = 0
KSW1 172213Z 21018KT 29/10 A2989 RMK A01 T02930096  RH  029%=      5-min Rain = 0
KSW1 172214Z 20016KT 29/10 A2989 RMK A01 T02940097  RH  029%=      5-min Rain = 0
KSW1 172215Z 21014KT 29/10 A2989 RMK A01 T02940097  RH  029%=      5-min Rain = 0
KSW1 172216Z 21013KT 29/10 A2989 RMK A01 T02940098  RH  030%=      5-min Rain = 0
KSW1 172217Z 21014KT 29/10 A2989 RMK A01 T02940099  RH  030%=      5-min Rain = 0
KSW1 172218Z 20013KT 29/10 A2989 RMK A01 T02940098  RH  030%=      5-min Rain = 0
KSW1 172219Z 20014KT 29/10 A2989 RMK A01 T02940098  RH  030%=      5-min Rain = 0
KSW1 172220Z 20014KT 29/10 A2989 RMK A01 T02940098  RH  030%=      5-min Rain = 0
KSW1 172221Z 20013KT 29/10 A2989 RMK A01 T02930097  RH  030%=      5-min Rain = 0
KSW1 172222Z 19015G21KT 29/10 A2989 RMK A01 T02930098  RH  030%=      5-min Rain = 0
KSW1 172223Z 19017KT 29/10 A2989 RMK A01 T02930098  RH  030%=      5-min Rain = 0
KSW1 172224Z 20014KT 29/10 A2989 RMK A01 T02930100  RH  030%=      5-min Rain = 0
KSW1 172225Z 19015KT 29/10 A2989 RMK A01 T02930102  RH  030%=      5-min Rain = 0
KSW1 172226Z 19016KT 29/10 A2988 RMK A01 T02920103  RH  031%=      5-min Rain = 0
KSW1 172227Z 19017KT 29/10 A2988 RMK A01 T02910104  RH  031%=      5-min Rain = 0
KSW1 172228Z 18015KT 29/10 A2988 RMK A01 T02900104  RH  031%=      5-min Rain = 0
KSW1 172229Z 18016KT 29/11 A2988 RMK A01 T02900106  RH  032%=      5-min Rain = 0
KSW1 172230Z 18014KT 29/11 A2988 RMK A01 T02890107  RH  032%=      5-min Rain = 0
KSW1 172231Z 19017KT 29/11 A2988 RMK A01 T02900105  RH  032%=      5-min Rain = 0
KSW1 172232Z 19015G20KT 29/10 A2988 RMK A01 T02900104  RH  031%=      5-min Rain = 0
KSW1 172233Z 19015KT 29/11 A2988 RMK A01 T02900106  RH  032%=      5-min Rain = 0
KSW1 172234Z 19017KT 29/11 A2988 RMK A01 T02890107  RH  032%=      5-min Rain = 0
KSW1 172235Z 19018KT 29/11 A2988 RMK A01 T02890107  RH  032%=      5-min Rain = 0
KSW1 172236Z 18016KT 29/11 A2988 RMK A01 T02880107  RH  032%=      5-min Rain = 0
KSW1 172237Z 18014G20KT 29/11 A2988 RMK A01 T02870109  RH  033%=      5-min Rain = 0
KSW1 172238Z 18018KT 29/11 A2988 RMK A01 T02870107  RH  033%=      5-min Rain = 0
KSW1 172239Z 18015G20KT 29/11 A2989 RMK A01 T02860108  RH  033%=      5-min Rain = 0
KSW1 172240Z 18014KT 29/11 A2988 RMK A01 T02860108  RH  033%=      5-min Rain = 0
KSW1 172241Z 18017KT 29/11 A2989 RMK A01 T02850107  RH  033%=      5-min Rain = 0
KSW1 172242Z 19016KT 29/11 A2989 RMK A01 T02850107  RH  033%=      5-min Rain = 0
KSW1 172243Z 19014KT 29/11 A2989 RMK A01 T02850107  RH  033%=      5-min Rain = 0
KSW1 172244Z 18012KT 29/11 A2989 RMK A01 T02850109  RH  033%=      5-min Rain = 0
KSW1 172245Z 18012KT 29/11 A2989 RMK A01 T02850111  RH  034%=      5-min Rain = 0
KSW1 172246Z 18013KT 29/11 A2989 RMK A01 T02850110  RH  034%=      5-min Rain = 0
KSW1 172247Z 18011KT 28/11 A2989 RMK A01 T02840110  RH  034%=      5-min Rain = 0
KSW1 172248Z 18012KT 28/11 A2989 RMK A01 T02840112  RH  034%=      5-min Rain = 0
KSW1 172249Z 18012KT 28/11 A2989 RMK A01 T02830112  RH  034%=      5-min Rain = 0
KSW1 172250Z 18013KT 28/11 A2989 RMK A01 T02830111  RH  034%=      5-min Rain = 0
KSW1 172251Z 19015KT 28/11 A2989 RMK A01 T02840108  RH  034%=      5-min Rain = 0
KSW1 172252Z 19013KT 28/11 A2988 RMK A01 T02830106  RH  033%=      5-min Rain = 0
KSW1 172253Z 19013KT 28/11 A2989 RMK A01 T02830106  RH  033%=      5-min Rain = 0
KSW1 172254Z 19011KT 28/11 A2989 RMK A01 T02840107  RH  033%=      5-min Rain = 0
KSW1 172255Z 19013G18KT 28/11 A2989 RMK A01 T02830107  RH  033%=      5-min Rain = 0
KSW1 172256Z 19015KT 28/11 A2989 RMK A01 T02830106  RH  033%=      5-min Rain = 0
KSW1 172257Z 19015KT 28/10 A2989 RMK A01 T02830104  RH  033%=      5-min Rain = 0
KSW1 172258Z 19015KT 28/11 A2989 RMK A01 T02830105  RH  033%=      5-min Rain = 0
KSW1 172259Z 19016KT 28/11 A2989 RMK A01 T02830106  RH  033%=      5-min Rain = 0
KSW1 172300Z 19015KT 28/11 A2989 RMK A01 T02820106  RH  033%=      5-min Rain = 0
KSW1 172301Z 19013KT 28/11 A2989 RMK A01 T02820108  RH  034%=      5-min Rain = 0
KSW1 172302Z 19014KT 28/11 A2989 RMK A01 T02820108  RH  034%=      5-min Rain = 0
KSW1 172303Z 19012KT 28/11 A2989 RMK A01 T02810109  RH  034%=      5-min Rain = 0
KSW1 172304Z 19012KT 28/11 A2989 RMK A01 T02810109  RH  034%=      5-min Rain = 0
KSW1 172305Z 18011KT 28/11 A2989 RMK A01 T02800110  RH  035%=      5-min Rain = 0
KSW1 172306Z 19010KT 28/11 A2989 RMK A01 T02790112  RH  035%=      5-min Rain = 0
KSW1 172307Z 19010KT 28/11 A2989 RMK A01 T02780111  RH  035%=      5-min Rain = 0
KSW1 172308Z 18011KT 28/11 A2989 RMK A01 T02780111  RH  035%=      5-min Rain = 0
KSW1 172309Z 19010KT 28/11 A2989 RMK A01 T02780111  RH  035%=      5-min Rain = 0
KSW1 172310Z 18010KT 28/11 A2989 RMK A01 T02770112  RH  036%=      5-min Rain = 0
KSW1 172311Z 18010KT 28/11 A2989 RMK A01 T02770112  RH  036%=      5-min Rain = 0
KSW1 172312Z 19011KT 28/11 A2989 RMK A01 T02760112  RH  036%=      5-min Rain = 0
KSW1 172313Z 18012KT 28/11 A2989 RMK A01 T02760111  RH  036%=      5-min Rain = 0
KSW1 172314Z 19011KT 28/11 A2989 RMK A01 T02750111  RH  036%=      5-min Rain = 0
KSW1 172315Z 19011KT 28/11 A2989 RMK A01 T02750111  RH  036%=      5-min Rain = 0
KSW1 172316Z 19011KT 27/11 A2989 RMK A01 T02740111  RH  036%=      5-min Rain = 0
KSW1 172317Z 19012KT 27/11 A2989 RMK A01 T02740111  RH  036%=      5-min Rain = 0
KSW1 172318Z 18012KT 27/11 A2989 RMK A01 T02730111  RH  036%=      5-min Rain = 0
KSW1 172319Z 19011KT 27/11 A2988 RMK A01 T02730111  RH  036%=      5-min Rain = 0
KSW1 172320Z 19012KT 27/11 A2988 RMK A01 T02720110  RH  036%=      5-min Rain = 0
KSW1 172321Z 19013KT 27/11 A2988 RMK A01 T02720110  RH  036%=      5-min Rain = 0
KSW1 172322Z 19012KT 27/11 A2988 RMK A01 T02720109  RH  036%=      5-min Rain = 0
KSW1 172323Z 19012KT 27/11 A2988 RMK A01 T02720110  RH  036%=      5-min Rain = 0
KSW1 172324Z 18012KT 27/11 A2988 RMK A01 T02710110  RH  037%=      5-min Rain = 0
KSW1 172325Z 18011KT 27/11 A2988 RMK A01 T02710111  RH  037%=      5-min Rain = 0
KSW1 172326Z 19011KT 27/11 A2988 RMK A01 T02700111  RH  037%=      5-min Rain = 0
KSW1 172327Z 18012KT 27/11 A2988 RMK A01 T02690111  RH  037%=      5-min Rain = 0
KSW1 172328Z 19013KT 27/11 A2988 RMK A01 T02680111  RH  037%=      5-min Rain = 0
KSW1 172329Z 19011KT 27/11 A2988 RMK A01 T02680110  RH  037%=      5-min Rain = 0
KSW1 172330Z 19011KT 27/11 A2988 RMK A01 T02680111  RH  037%=      5-min Rain = 0
KSW1 172331Z 18012KT 27/11 A2988 RMK A01 T02680111  RH  037%=      5-min Rain = 0
KSW1 172332Z 19011KT 27/11 A2989 RMK A01 T02680111  RH  038%=      5-min Rain = 0
KSW1 172333Z 19012KT 27/11 A2989 RMK A01 T02670111  RH  038%=      5-min Rain = 0
KSW1 172334Z 19010KT 27/11 A2989 RMK A01 T02660110  RH  038%=      5-min Rain = 0
KSW1 172335Z 18012KT 27/11 A2989 RMK A01 T02660111  RH  038%=      5-min Rain = 0
KSW1 172336Z 18012KT 27/11 A2989 RMK A01 T02660111  RH  038%=      5-min Rain = 0
KSW1 172337Z 18011KT 27/11 A2989 RMK A01 T02660112  RH  038%=      5-min Rain = 0
KSW1 172338Z 18010KT 27/11 A2989 RMK A01 T02650112  RH  038%=      5-min Rain = 0
KSW1 172339Z 18009KT 26/11 A2989 RMK A01 T02640113  RH  039%=      5-min Rain = 0
KSW1 172340Z 18011KT 26/11 A2989 RMK A01 T02630113  RH  039%=      5-min Rain = 0
KSW1 172341Z 18011KT 26/11 A2989 RMK A01 T02620112  RH  039%=      5-min Rain = 0
KSW1 172342Z 18010KT 26/11 A2989 RMK A01 T02620112  RH  039%=      5-min Rain = 0
KSW1 172343Z 18011KT 26/11 A2989 RMK A01 T02620113  RH  039%=      5-min Rain = 0
KSW1 172344Z 18011KT 26/11 A2989 RMK A01 T02610113  RH  039%=      5-min Rain = 0
KSW1 172345Z 18013KT 26/11 A2989 RMK A01 T02610113  RH  040%=      5-min Rain = 0
KSW1 172346Z 18011KT 26/11 A2989 RMK A01 T02600112  RH  039%=      5-min Rain = 0
KSW1 172347Z 19011KT 26/11 A2989 RMK A01 T02600112  RH  039%=      5-min Rain = 0
KSW1 172348Z 18011KT 26/11 A2989 RMK A01 T02610113  RH  040%=      5-min Rain = 0
KSW1 172349Z 19011KT 26/11 A2989 RMK A01 T02590112  RH  040%=      5-min Rain = 0
KSW1 172350Z 18010KT 26/11 A2989 RMK A01 T02580112  RH  040%=      5-min Rain = 0
KSW1 172351Z 18009KT 26/11 A2989 RMK A01 T02570113  RH  040%=      5-min Rain = 0
KSW1 172352Z 18009KT 26/11 A2989 RMK A01 T02560113  RH  041%=      5-min Rain = 0
KSW1 172353Z 18009KT 26/11 A2989 RMK A01 T02550113  RH  041%=      5-min Rain = 0
KSW1 172354Z 18010KT 25/11 A2989 RMK A01 T02540113  RH  041%=      5-min Rain = 0
KSW1 172355Z 18009KT 25/11 A2989 RMK A01 T02530113  RH  041%=      5-min Rain = 0
KSW1 172356Z 18009KT 25/11 A2989 RMK A01 T02530113  RH  042%=      5-min Rain = 0
KSW1 172357Z 18010KT 25/11 A2989 RMK A01 T02520113  RH  042%=      5-min Rain = 0
KSW1 172358Z 18009KT 25/11 A2989 RMK A01 T02510113  RH  042%=      5-min Rain = 0
KSW1 172359Z 18010KT 25/11 A2989 RMK A01 T02500113  RH  042%=      5-min Rain = 0
KSW1 180000Z 18010KT 25/11 A2989 RMK A01 T02500112  RH  042%=      5-min Rain = 0
KSW1 180001Z 18010KT 25/11 A2989 RMK A01 T02510112  RH  042%=      5-min Rain = 0
KSW1 180002Z 17010KT 25/11 A2989 RMK A01 T02510111  RH  042%=      5-min Rain = 0
KSW1 180003Z 17009KT 25/11 A2989 RMK A01 T02510112  RH  042%=      5-min Rain = 0
KSW1 180004Z 17010KT 25/11 A2989 RMK A01 T02500111  RH  042%=      5-min Rain = 0
KSW1 180005Z 17010KT 25/11 A2989 RMK A01 T02490111  RH  042%=      5-min Rain = 0
KSW1 180006Z 17009KT 25/11 A2989 RMK A01 T02490111  RH  042%=      5-min Rain = 0
KSW1 180007Z 17010KT 25/11 A2989 RMK A01 T02490111  RH  042%=      5-min Rain = 0
KSW1 180008Z 18009KT 25/11 A2989 RMK A01 T02480111  RH  042%=      5-min Rain = 0
KSW1 180009Z 17010KT 25/11 A2989 RMK A01 T02480111  RH  042%=      5-min Rain = 0
KSW1 180010Z 17009KT 25/11 A2989 RMK A01 T02480111  RH  042%=      5-min Rain = 0
KSW1 180011Z 18009KT 25/11 A2989 RMK A01 T02470111  RH  043%=      5-min Rain = 0
KSW1 180012Z 17009KT 25/11 A2989 RMK A01 T02470112  RH  043%=      5-min Rain = 0
KSW1 180013Z 17009KT 25/11 A2989 RMK A01 T02450112  RH  043%=      5-min Rain = 0
KSW1 180014Z 17010KT 24/11 A2989 RMK A01 T02440112  RH  043%=      5-min Rain = 0
KSW1 180015Z 17010KT 24/11 A2989 RMK A01 T02440112  RH  044%=      5-min Rain = 0
KSW1 180016Z 17010KT 24/11 A2989 RMK A01 T02430112  RH  044%=      5-min Rain = 0
KSW1 180017Z 17010KT 24/11 A2989 RMK A01 T02430112  RH  044%=      5-min Rain = 0
KSW1 180018Z 17010KT 24/11 A2989 RMK A01 T02420112  RH  044%=      5-min Rain = 0
KSW1 180019Z 17011KT 24/11 A2989 RMK A01 T02420112  RH  044%=      5-min Rain = 0
KSW1 180020Z 17009KT 24/11 A2989 RMK A01 T02430113  RH  044%=      5-min Rain = 0
KSW1 180021Z 17011KT 24/11 A2989 RMK A01 T02420113  RH  044%=      5-min Rain = 0
KSW1 180022Z 17010KT 24/11 A2989 RMK A01 T02420113  RH  044%=      5-min Rain = 0
KSW1 180023Z 17011KT 24/11 A2989 RMK A01 T02420112  RH  044%=      5-min Rain = 0
KSW1 180024Z 17011KT 24/11 A2989 RMK A01 T02420112  RH  044%=      5-min Rain = 0
KSW1 180025Z 17011KT 24/11 A2989 RMK A01 T02430113  RH  044%=      5-min Rain = 0
KSW1 180026Z 17010KT 24/11 A2989 RMK A01 T02430113  RH  044%=      5-min Rain = 0
KSW1 180027Z 17010KT 24/11 A2989 RMK A01 T02420112  RH  044%=      5-min Rain = 0
KSW1 180028Z 17012KT 24/11 A2989 RMK A01 T02410112  RH  044%=      5-min Rain = 0
KSW1 180029Z 17012KT 24/11 A2989 RMK A01 T02410112  RH  044%=      5-min Rain = 0
KSW1 180030Z 17013KT 24/11 A2989 RMK A01 T02410112  RH  044%=      5-min Rain = 0
KSW1 180031Z 17012KT 24/11 A2989 RMK A01 T02420112  RH  044%=      5-min Rain = 0
KSW1 180032Z 17011KT 24/11 A2989 RMK A01 T02420112  RH  044%=      5-min Rain = 0
KSW1 180033Z 17010KT 24/11 A2989 RMK A01 T02410112  RH  044%=      5-min Rain = 0
KSW1 180034Z 17011KT 24/11 A2989 RMK A01 T02400112  RH  044%=      5-min Rain = 0
KSW1 180035Z 17012KT 24/11 A2989 RMK A01 T02400112  RH  045%=      5-min Rain = 0
KSW1 180036Z 17011KT 24/11 A2989 RMK A01 T02400112  RH  045%=      5-min Rain = 0
KSW1 180037Z 17012KT 24/11 A2989 RMK A01 T02400112  RH  044%=      5-min Rain = 0
KSW1 180038Z 17012KT 24/11 A2989 RMK A01 T02400112  RH  044%=      5-min Rain = 0
KSW1 180039Z 17011KT 24/11 A2989 RMK A01 T02400112  RH  045%=      5-min Rain = 0
KSW1 180040Z 17011KT 24/11 A2989 RMK A01 T02390112  RH  045%=      5-min Rain = 0
KSW1 180041Z 17013KT 24/11 A2989 RMK A01 T02390112  RH  045%=      5-min Rain = 0
KSW1 180042Z 17011KT 24/11 A2989 RMK A01 T02400112  RH  045%=      5-min Rain = 0
KSW1 180043Z 17011G16KT 24/11 A2989 RMK A01 T02400112  RH  045%=      5-min Rain = 0
KSW1 180044Z 17012KT 24/11 A2989 RMK A01 T02400112  RH  045%=      5-min Rain = 0
KSW1 180045Z 17013KT 24/11 A2989 RMK A01 T02400112  RH  045%=      5-min Rain = 0
KSW1 180046Z 17010KT 24/11 A299 RMK A01 T02400112  RH  045%=      5-min Rain = 0
KSW1 180047Z 17012KT 24/11 A2989 RMK A01 T02390112  RH  045%=      5-min Rain = 0
KSW1 180048Z 17012KT 24/11 A2989 RMK A01 T02390112  RH  045%=      5-min Rain = 0
KSW1 180049Z 17011KT 24/11 A2989 RMK A01 T02390112  RH  045%=      5-min Rain = 0
KSW1 180050Z 17012KT 24/11 A2989 RMK A01 T02390112  RH  045%=      5-min Rain = 0
KSW1 180051Z 17013KT 24/11 A2989 RMK A01 T02390112  RH  045%=      5-min Rain = 0
KSW1 180052Z 17013KT 24/11 A2989 RMK A01 T02400112  RH  045%=      5-min Rain = 0
KSW1 180053Z 17012KT 24/11 A2989 RMK A01 T02390113  RH  045%=      5-min Rain = 0
KSW1 180054Z 17013KT 24/11 A299 RMK A01 T02390112  RH  045%=      5-min Rain = 0
KSW1 180055Z 17013KT 24/11 A299 RMK A01 T02390113  RH  045%=      5-min Rain = 0
KSW1 180056Z 17013KT 24/11 A299 RMK A01 T02380113  RH  045%=      5-min Rain = 0
KSW1 180057Z 17012KT 24/11 A299 RMK A01 T02380112  RH  045%=      5-min Rain = 0
KSW1 180058Z 17012KT 24/11 A299 RMK A01 T02370112  RH  045%=      5-min Rain = 0
KSW1 180059Z 17014KT 24/11 A299 RMK A01 T02370112  RH  045%=      5-min Rain = 0
KSW1 180100Z 17011KT 24/11 A299 RMK A01 T02370112  RH  045%=      5-min Rain = 0
KSW1 180101Z 17012KT 24/11 A299 RMK A01 T02370113  RH  046%=      5-min Rain = 0
KSW1 180102Z 17012KT 24/11 A299 RMK A01 T02370113  RH  046%=      5-min Rain = 0
KSW1 180103Z 17011KT 24/11 A299 RMK A01 T02370113  RH  046%=      5-min Rain = 0
KSW1 180104Z 17012KT 24/11 A299 RMK A01 T02360112  RH  046%=      5-min Rain = 0
KSW1 180105Z 17012KT 24/11 A299 RMK A01 T02360112  RH  046%=      5-min Rain = 0
KSW1 180106Z 17011KT 24/11 A299 RMK A01 T02360112  RH  046%=      5-min Rain = 0
KSW1 180107Z 17012KT 24/11 A299 RMK A01 T02350113  RH  046%=      5-min Rain = 0
KSW1 180108Z 17013KT 24/11 A299 RMK A01 T02350113  RH  046%=      5-min Rain = 0
KSW1 180109Z 17012KT 23/11 A299 RMK A01 T02340112  RH  046%=      5-min Rain = 0
KSW1 180110Z 17011KT 23/11 A299 RMK A01 T02340113  RH  046%=      5-min Rain = 0
KSW1 180111Z 17011KT 23/11 A299 RMK A01 T02340113  RH  047%=      5-min Rain = 0
KSW1 180112Z 17013KT 23/11 A299 RMK A01 T02320113  RH  047%=      5-min Rain = 0
KSW1 180113Z 17012KT 23/11 A299 RMK A01 T02320113  RH  047%=      5-min Rain = 0
KSW1 180114Z 17014KT 23/11 A299 RMK A01 T02320113  RH  047%=      5-min Rain = 0
KSW1 180115Z 17013KT 23/11 A299 RMK A01 T02320113  RH  047%=      5-min Rain = 0
KSW1 180116Z 17014KT 23/11 A299 RMK A01 T02330113  RH  047%=      5-min Rain = 0
KSW1 180117Z 17013KT 23/11 A299 RMK A01 T02330113  RH  047%=      5-min Rain = 0
KSW1 180118Z 17012KT 23/11 A299 RMK A01 T02320113  RH  047%=      5-min Rain = 0
KSW1 180119Z 17013KT 23/11 A299 RMK A01 T02310113  RH  047%=      5-min Rain = 0
KSW1 180120Z 17012KT 23/11 A299 RMK A01 T02310113  RH  047%=      5-min Rain = 0
KSW1 180121Z 17013KT 23/11 A299 RMK A01 T02300113  RH  048%=      5-min Rain = 0
KSW1 180122Z 17014KT 23/11 A299 RMK A01 T02300113  RH  048%=      5-min Rain = 0
KSW1 180123Z 17015KT 23/11 A299 RMK A01 T02300112  RH  047%=      5-min Rain = 0
KSW1 180124Z 17013KT 23/11 A299 RMK A01 T02310113  RH  047%=      5-min Rain = 0
KSW1 180125Z 17014KT 23/11 A299 RMK A01 T02310113  RH  047%=      5-min Rain = 0
KSW1 180126Z 17014KT 23/11 A299 RMK A01 T02300112  RH  047%=      5-min Rain = 0
KSW1 180127Z 17012KT 23/11 A299 RMK A01 T02300112  RH  047%=      5-min Rain = 0
KSW1 180128Z 17013KT 23/11 A299 RMK A01 T02300113  RH  048%=      5-min Rain = 0
KSW1 180129Z 17015KT 23/11 A299 RMK A01 T02290112  RH  048%=      5-min Rain = 0
KSW1 180130Z 17013G18KT 23/11 A299 RMK A01 T02290113  RH  048%=      5-min Rain = 0
KSW1 180131Z 17014KT 23/11 A299 RMK A01 T02290113  RH  048%=      5-min Rain = 0
KSW1 180132Z 17014G19KT 23/11 A299 RMK A01 T02280112  RH  048%=      5-min Rain = 0
KSW1 180133Z 17014KT 23/11 A299 RMK A01 T02280112  RH  048%=      5-min Rain = 0
KSW1 180134Z 17014KT 23/11 A299 RMK A01 T02280112  RH  048%=      5-min Rain = 0
KSW1 180135Z 18015KT 23/11 A299 RMK A01 T02290112  RH  048%=      5-min Rain = 0
KSW1 180136Z 17014KT 23/11 A299 RMK A01 T02280113  RH  048%=      5-min Rain = 0
KSW1 180137Z 17014KT 23/11 A299 RMK A01 T02280113  RH  048%=      5-min Rain = 0
KSW1 180138Z 17014KT 23/11 A299 RMK A01 T02280113  RH  048%=      5-min Rain = 0
KSW1 180139Z 17014KT 23/11 A299 RMK A01 T02280112  RH  048%=      5-min Rain = 0
KSW1 180140Z 17013KT 23/11 A2991 RMK A01 T02280113  RH  048%=      5-min Rain = 0
KSW1 180141Z 18014KT 23/11 A2991 RMK A01 T02280112  RH  048%=      5-min Rain = 0
KSW1 180142Z 17013KT 23/11 A2991 RMK A01 T02270112  RH  048%=      5-min Rain = 0
KSW1 180143Z 18013KT 23/11 A299 RMK A01 T02270112  RH  048%=      5-min Rain = 0
KSW1 180144Z 17013KT 23/11 A299 RMK A01 T02260112  RH  049%=      5-min Rain = 0
KSW1 180145Z 18013KT 23/11 A2991 RMK A01 T02260112  RH  049%=      5-min Rain = 0
KSW1 180146Z 18015KT 23/11 A2991 RMK A01 T02260112  RH  049%=      5-min Rain = 0
KSW1 180147Z 18014KT 23/11 A2991 RMK A01 T02260112  RH  049%=      5-min Rain = 0
KSW1 180148Z 18015KT 23/11 A299 RMK A01 T02260112  RH  048%=      5-min Rain = 0
KSW1 180149Z 18015KT 23/11 A2991 RMK A01 T02260112  RH  048%=      5-min Rain = 0
KSW1 180150Z 17014KT 23/11 A2991 RMK A01 T02260112  RH  048%=      5-min Rain = 0
KSW1 180151Z 18014KT 23/11 A299 RMK A01 T02260112  RH  048%=      5-min Rain = 0
KSW1 180152Z 17013KT 23/11 A299 RMK A01 T02260112  RH  048%=      5-min Rain = 0
KSW1 180153Z 18013G18KT 23/11 A299 RMK A01 T02260112  RH  048%=      5-min Rain = 0
KSW1 180154Z 18015KT 23/11 A299 RMK A01 T02260112  RH  049%=      5-min Rain = 0
KSW1 180155Z 18013KT 23/11 A299 RMK A01 T02250112  RH  049%=      5-min Rain = 0
KSW1 180156Z 18014KT 23/11 A2991 RMK A01 T02250112  RH  049%=      5-min Rain = 0
KSW1 180157Z 18015KT 23/11 A299 RMK A01 T02250112  RH  049%=      5-min Rain = 0
KSW1 180158Z 18015KT 22/11 A299 RMK A01 T02240112  RH  049%=      5-min Rain = 0
KSW1 180159Z 17015KT 22/11 A299 RMK A01 T02240111  RH  049%=      5-min Rain = 0
KSW1 180200Z 18013G18KT 23/11 A299 RMK A01 T02250111  RH  049%=      5-min Rain = 0
KSW1 180201Z 17013KT 23/11 A299 RMK A01 T02250112  RH  049%=      5-min Rain = 0
KSW1 180202Z 18014KT 22/11 A299 RMK A01 T02240112  RH  049%=      5-min Rain = 0
KSW1 180203Z 18015KT 22/11 A299 RMK A01 T02230111  RH  049%=      5-min Rain = 0
KSW1 180204Z 18015KT 22/11 A299 RMK A01 T02240111  RH  049%=      5-min Rain = 0
KSW1 180205Z 18013KT 22/11 A299 RMK A01 T02230111  RH  049%=      5-min Rain = 0
KSW1 180206Z 18013KT 22/11 A299 RMK A01 T02240111  RH  049%=      5-min Rain = 0
KSW1 180207Z 17014KT 22/11 A299 RMK A01 T02240111  RH  049%=      5-min Rain = 0
KSW1 180208Z 18016KT 22/11 A299 RMK A01 T02240112  RH  049%=      5-min Rain = 0
KSW1 180209Z 17014G19KT 22/11 A299 RMK A01 T02230111  RH  049%=      5-min Rain = 0
KSW1 180210Z 17015KT 22/11 A299 RMK A01 T02230111  RH  049%=      5-min Rain = 0
KSW1 180211Z 17015KT 22/11 A299 RMK A01 T02240112  RH  049%=      5-min Rain = 0
KSW1 180212Z 17013KT 22/11 A299 RMK A01 T02230112  RH  049%=      5-min Rain = 0
KSW1 180213Z 17015KT 22/11 A299 RMK A01 T02220111  RH  049%=      5-min Rain = 0
KSW1 180214Z 17014KT 22/11 A299 RMK A01 T02220112  RH  049%=      5-min Rain = 0
KSW1 180215Z 17015KT 22/11 A299 RMK A01 T02220112  RH  049%=      5-min Rain = 0
KSW1 180216Z 17015KT 22/11 A299 RMK A01 T02220112  RH  050%=      5-min Rain = 0
KSW1 180217Z 17016KT 22/11 A299 RMK A01 T02220112  RH  050%=      5-min Rain = 0
KSW1 180218Z 17014G19KT 22/11 A299 RMK A01 T02220112  RH  050%=      5-min Rain = 0
KSW1 180219Z 17016G21KT 22/11 A299 RMK A01 T02220112  RH  050%=      5-min Rain = 0
KSW1 180220Z 17015KT 22/11 A299 RMK A01 T02220112  RH  050%=      5-min Rain = 0
KSW1 180221Z 17014KT 22/11 A299 RMK A01 T02220112  RH  050%=      5-min Rain = 0
KSW1 180222Z 17014KT 22/11 A299 RMK A01 T02220112  RH  050%=      5-min Rain = 0
KSW1 180223Z 17015KT 22/11 A299 RMK A01 T02210113  RH  050%=      5-min Rain = 0
KSW1 180224Z 17014KT 22/11 A299 RMK A01 T02210113  RH  050%=      5-min Rain = 0
KSW1 180225Z 17015KT 22/11 A299 RMK A01 T02210113  RH  050%=      5-min Rain = 0
KSW1 180226Z 18016KT 22/11 A299 RMK A01 T02210113  RH  050%=      5-min Rain = 0
KSW1 180227Z 17014KT 22/11 A299 RMK A01 T02210113  RH  050%=      5-min Rain = 0
KSW1 180228Z 18013KT 22/11 A299 RMK A01 T02210113  RH  050%=      5-min Rain = 0
KSW1 180229Z 18014KT 22/11 A299 RMK A01 T02200113  RH  051%=      5-min Rain = 0
KSW1 180230Z 17016KT 22/11 A299 RMK A01 T02190113  RH  051%=      5-min Rain = 0
KSW1 180231Z 18015KT 22/11 A299 RMK A01 T02190113  RH  051%=      5-min Rain = 0
KSW1 180232Z 17015KT 22/11 A299 RMK A01 T02190113  RH  051%=      5-min Rain = 0
KSW1 180233Z 17013KT 22/11 A299 RMK A01 T02190113  RH  051%=      5-min Rain = 0
KSW1 180234Z 17014KT 22/11 A299 RMK A01 T02180113  RH  051%=      5-min Rain = 0
KSW1 180235Z 17015G20KT 22/11 A299 RMK A01 T02170113  RH  051%=      5-min Rain = 0
KSW1 180236Z 17013KT 22/11 A299 RMK A01 T02180113  RH  051%=      5-min Rain = 0
KSW1 180237Z 17013G18KT 22/11 A299 RMK A01 T02170113  RH  051%=      5-min Rain = 0
KSW1 180238Z 18013KT 22/11 A299 RMK A01 T02170114  RH  052%=      5-min Rain = 0
KSW1 180239Z 17014KT 22/11 A299 RMK A01 T02170114  RH  052%=      5-min Rain = 0
KSW1 180240Z 18016KT 22/11 A299 RMK A01 T02160114  RH  052%=      5-min Rain = 0
KSW1 180241Z 17015G20KT 22/11 A299 RMK A01 T02160114  RH  052%=      5-min Rain = 0
KSW1 180242Z 18015G20KT 22/12 A299 RMK A01 T02170115  RH  052%=      5-min Rain = 0
KSW1 180243Z 17016KT 22/12 A299 RMK A01 T02170115  RH  052%=      5-min Rain = 0
KSW1 180244Z 17016G21KT 22/12 A299 RMK A01 T02170115  RH  052%=      5-min Rain = 0
KSW1 180245Z 17015KT 22/12 A299 RMK A01 T02170115  RH  052%=      5-min Rain = 0
KSW1 180246Z 18015KT 22/12 A299 RMK A01 T02170115  RH  052%=      5-min Rain = 0
KSW1 180247Z 18014KT 22/12 A299 RMK A01 T02160115  RH  052%=      5-min Rain = 0
KSW1 180248Z 18015KT 22/12 A299 RMK A01 T02160115  RH  053%=      5-min Rain = 0
KSW1 180249Z 17015KT 22/12 A299 RMK A01 T02160115  RH  053%=      5-min Rain = 0
KSW1 180250Z 18015KT 22/12 A299 RMK A01 T02150115  RH  053%=      5-min Rain = 0
KSW1 180251Z 18014KT 22/12 A299 RMK A01 T02150116  RH  053%=      5-min Rain = 0
KSW1 180252Z 17014KT 22/12 A299 RMK A01 T02150115  RH  053%=      5-min Rain = 0
KSW1 180253Z 18013KT 21/12 A299 RMK A01 T02140115  RH  053%=      5-min Rain = 0
KSW1 180254Z 18014KT 21/12 A299 RMK A01 T02140115  RH  053%=      5-min Rain = 0
KSW1 180255Z 17015KT 21/12 A299 RMK A01 T02140115  RH  053%=      5-min Rain = 0
KSW1 180256Z 17015KT 21/11 A299 RMK A01 T02130114  RH  053%=      5-min Rain = 0
KSW1 180257Z 17015KT 21/12 A299 RMK A01 T02130115  RH  053%=      5-min Rain = 0
KSW1 180258Z 17015KT 21/11 A299 RMK A01 T02130114  RH  053%=      5-min Rain = 0
KSW1 180259Z 17014KT 21/11 A299 RMK A01 T02130114  RH  053%=      5-min Rain = 0
KSW1 180300Z 17015KT 21/11 A299 RMK A01 T02120114  RH  054%=      5-min Rain = 0
KSW1 180301Z 17015KT 21/11 A2989 RMK A01 T02120114  RH  054%=      5-min Rain = 0
KSW1 180302Z 17014G19KT 21/11 A2989 RMK A01 T02120114  RH  054%=      5-min Rain = 0
KSW1 180303Z 18018KT 21/12 A2989 RMK A01 T02120115  RH  054%=      5-min Rain = 0
KSW1 180304Z 18017KT 21/12 A2989 RMK A01 T02120115  RH  054%=      5-min Rain = 0
KSW1 180305Z 18018KT 21/12 A2989 RMK A01 T02120115  RH  054%=      5-min Rain = 0
KSW1 180306Z 17015KT 21/12 A2989 RMK A01 T02120116  RH  054%=      5-min Rain = 0
KSW1 180307Z 18013KT 21/12 A2989 RMK A01 T02120116  RH  054%=      5-min Rain = 0
KSW1 180308Z 17014KT 21/12 A2989 RMK A01 T02120116  RH  054%=      5-min Rain = 0
KSW1 180309Z 18014G19KT 21/12 A2989 RMK A01 T02110116  RH  055%=      5-min Rain = 0
KSW1 180310Z 18015KT 21/12 A2989 RMK A01 T02110116  RH  055%=      5-min Rain = 0
KSW1 180311Z 17016KT 21/12 A2989 RMK A01 T02110116  RH  055%=      5-min Rain = 0
KSW1 180312Z 17015KT 21/12 A2989 RMK A01 T02100115  RH  055%=      5-min Rain = 0
KSW1 180313Z 17014KT 21/12 A2989 RMK A01 T02100115  RH  055%=      5-min Rain = 0
KSW1 180314Z 17014KT 21/12 A299 RMK A01 T02100115  RH  055%=      5-min Rain = 0
KSW1 180315Z 17015G20KT 21/12 A299 RMK A01 T02090115  RH  055%=      5-min Rain = 0
KSW1 180316Z 17014KT 21/12 A2989 RMK A01 T02090116  RH  055%=      5-min Rain = 0
KSW1 180317Z 17013KT 21/12 A299 RMK A01 T02090116  RH  055%=      5-min Rain = 0
KSW1 180318Z 17012KT 21/12 A299 RMK A01 T02090116  RH  055%=      5-min Rain = 0
KSW1 180319Z 18015KT 21/12 A299 RMK A01 T02080116  RH  056%=      5-min Rain = 0
KSW1 180320Z 18017G23KT 21/12 A299 RMK A01 T02080116  RH  056%=      5-min Rain = 0
KSW1 180321Z 17015KT 21/12 A299 RMK A01 T02090117  RH  056%=      5-min Rain = 0
KSW1 180322Z 18015KT 21/12 A299 RMK A01 T02090117  RH  056%=      5-min Rain = 0
KSW1 180323Z 17015KT 21/12 A299 RMK A01 T02090118  RH  056%=      5-min Rain = 0
KSW1 180324Z 18017G22KT 21/12 A299 RMK A01 T02090118  RH  056%=      5-min Rain = 0
KSW1 180325Z 17016KT 21/12 A299 RMK A01 T02100119  RH  056%=      5-min Rain = 0
KSW1 180326Z 18017KT 21/12 A299 RMK A01 T02100119  RH  056%=      5-min Rain = 0
KSW1 180327Z 18016KT 21/12 A299 RMK A01 T02100120  RH  056%=      5-min Rain = 0
KSW1 180328Z 18016KT 21/12 A299 RMK A01 T02100120  RH  057%=      5-min Rain = 0
KSW1 180329Z 18017KT 21/12 A299 RMK A01 T02090121  RH  057%=      5-min Rain = 0
KSW1 180330Z 18015KT 21/12 A299 RMK A01 T02090121  RH  057%=      5-min Rain = 0
KSW1 180331Z 18014KT 21/12 A299 RMK A01 T02090122  RH  057%=      5-min Rain = 0
KSW1 180332Z 18018KT 21/12 A299 RMK A01 T02080122  RH  058%=      5-min Rain = 0
KSW1 180333Z 17017KT 21/12 A299 RMK A01 T02080123  RH  058%=      5-min Rain = 0
KSW1 180334Z 18017G23KT 21/12 A299 RMK A01 T02090123  RH  058%=      5-min Rain = 0
KSW1 180335Z 18018G23KT 21/12 A299 RMK A01 T02090124  RH  058%=      5-min Rain = 0
KSW1 180336Z 18018KT 21/12 A299 RMK A01 T02100124  RH  058%=      5-min Rain = 0
KSW1 180337Z 18015KT 21/12 A299 RMK A01 T02100124  RH  058%=      5-min Rain = 0
KSW1 180338Z 18016G23KT 21/12 A299 RMK A01 T02090124  RH  058%=      5-min Rain = 0
KSW1 180339Z 18018G23KT 21/13 A299 RMK A01 T02090125  RH  059%=      5-min Rain = 0
KSW1 180340Z 18016G21KT 21/13 A299 RMK A01 T02090125  RH  059%=      5-min Rain = 0
KSW1 180341Z 17015G21KT 21/13 A299 RMK A01 T02090126  RH  059%=      5-min Rain = 0
KSW1 180342Z 17015KT 21/13 A299 RMK A01 T02090127  RH  059%=      5-min Rain = 0
KSW1 180343Z 18016G22KT 21/13 A299 RMK A01 T02090127  RH  059%=      5-min Rain = 0
KSW1 180344Z 18016G21KT 21/13 A299 RMK A01 T02080127  RH  060%=      5-min Rain = 0
KSW1 180345Z 18016G22KT 21/13 A299 RMK A01 T02080127  RH  060%=      5-min Rain = 0
KSW1 180346Z 18019KT 21/13 A299 RMK A01 T02080128  RH  060%=      5-min Rain = 0
KSW1 180347Z 18019KT 21/13 A299 RMK A01 T02080129  RH  060%=      5-min Rain = 0
KSW1 180348Z 18021KT 21/13 A299 RMK A01 T02090129  RH  060%=      5-min Rain = 0
KSW1 180349Z 18017KT 21/13 A299 RMK A01 T02090129  RH  060%=      5-min Rain = 0
KSW1 180350Z 18020G25KT 21/13 A299 RMK A01 T02090130  RH  060%=      5-min Rain = 0
KSW1 180351Z 18021KT 21/13 A299 RMK A01 T02090130  RH  061%=      5-min Rain = 0
KSW1 180352Z 18017KT 21/13 A2991 RMK A01 T02100130  RH  060%=      5-min Rain = 0
KSW1 180353Z 18018G23KT 21/13 A2991 RMK A01 T02100130  RH  060%=      5-min Rain = 0
KSW1 180354Z 18016KT 21/13 A2991 RMK A01 T02090130  RH  061%=      5-min Rain = 0
KSW1 180355Z 18016G22KT 21/13 A2991 RMK A01 T02080130  RH  061%=      5-min Rain = 0
KSW1 180356Z 18016G21KT 21/13 A2991 RMK A01 T02080130  RH  061%=      5-min Rain = 0
KSW1 180357Z 18018KT 21/13 A2991 RMK A01 T02070130  RH  061%=      5-min Rain = 0
KSW1 180358Z 18017KT 21/13 A2991 RMK A01 T02070130  RH  061%=      5-min Rain = 0
KSW1 180359Z 18014G19KT 21/13 A2991 RMK A01 T02080130  RH  061%=      5-min Rain = 0
KSW1 180400Z 18014KT 21/13 A2991 RMK A01 T02060130  RH  062%=      5-min Rain = 0
KSW1 180401Z 18015G21KT 21/13 A2991 RMK A01 T02060130  RH  062%=      5-min Rain = 0
KSW1 180402Z 18019KT 21/13 A2991 RMK A01 T02060130  RH  062%=      5-min Rain = 0
KSW1 180403Z 17017G22KT 21/13 A2991 RMK A01 T02070131  RH  062%=      5-min Rain = 0
KSW1 180404Z 18014KT 21/13 A2991 RMK A01 T02070131  RH  062%=      5-min Rain = 0
KSW1 180405Z 18017G22KT 21/13 A2991 RMK A01 T02060131  RH  062%=      5-min Rain = 0
KSW1 180406Z 17014KT 21/13 A2991 RMK A01 T02060131  RH  062%=      5-min Rain = 0
KSW1 180407Z 18014KT 21/13 A2991 RMK A01 T02060131  RH  062%=      5-min Rain = 0
KSW1 180408Z 18017KT 21/13 A2991 RMK A01 T02050132  RH  063%=      5-min Rain = 0
KSW1 180409Z 17016KT 21/13 A2991 RMK A01 T02050132  RH  063%=      5-min Rain = 0
KSW1 180410Z 18018KT 21/13 A2991 RMK A01 T02060132  RH  062%=      5-min Rain = 0
KSW1 180411Z 17014KT 21/13 A2991 RMK A01 T02060132  RH  062%=      5-min Rain = 0
KSW1 180412Z 18017KT 21/13 A2991 RMK A01 T02060132  RH  063%=      5-min Rain = 0
KSW1 180413Z 18016G21KT 21/13 A2991 RMK A01 T02060132  RH  063%=      5-min Rain = 0
KSW1 180414Z 17016KT 21/13 A2991 RMK A01 T02060132  RH  063%=      5-min Rain = 0
KSW1 180415Z 18019KT 21/13 A2991 RMK A01 T02060132  RH  063%=      5-min Rain = 0
KSW1 180416Z 18014KT 21/13 A2991 RMK A01 T02060132  RH  063%=      5-min Rain = 0
KSW1 180417Z 18015G20KT 21/13 A2991 RMK A01 T02050132  RH  063%=      5-min Rain = 0
KSW1 180418Z 18017KT 21/13 A2991 RMK A01 T02050133  RH  063%=      5-min Rain = 0
KSW1 180419Z 18016KT 21/13 A2991 RMK A01 T02050133  RH  063%=      5-min Rain = 0
KSW1 180420Z 17017KT 21/13 A2991 RMK A01 T02050133  RH  063%=      5-min Rain = 0
KSW1 180421Z 18015KT 21/13 A2991 RMK A01 T02050133  RH  063%=      5-min Rain = 0
KSW1 180422Z 18017KT 21/13 A2991 RMK A01 T02050133  RH  063%=      5-min Rain = 0
KSW1 180423Z 17013KT 21/13 A2991 RMK A01 T02060133  RH  063%=      5-min Rain = 0
KSW1 180424Z 18015KT 21/13 A2991 RMK A01 T02050133  RH  063%=      5-min Rain = 0
KSW1 180425Z 18014KT 21/13 A2991 RMK A01 T02050133  RH  063%=      5-min Rain = 0
KSW1 180426Z 18015KT 21/13 A2992 RMK A01 T02050133  RH  064%=      5-min Rain = 0
KSW1 180427Z 18013KT 21/13 A2992 RMK A01 T02050133  RH  064%=      5-min Rain = 0
KSW1 180428Z 17012KT 20/13 A2992 RMK A01 T02040133  RH  064%=      5-min Rain = 0
KSW1 180429Z 18017G22KT 20/13 A2992 RMK A01 T02040134  RH  064%=      5-min Rain = 0
KSW1 180430Z 18016G23KT 20/13 A2991 RMK A01 T02040133  RH  064%=      5-min Rain = 0
KSW1 180431Z 18012KT 21/13 A2992 RMK A01 T02050133  RH  063%=      5-min Rain = 0
KSW1 180432Z 18014KT 21/13 A2992 RMK A01 T02050133  RH  064%=      5-min Rain = 0
KSW1 180433Z 17014KT 21/13 A2992 RMK A01 T02050134  RH  064%=      5-min Rain = 0
KSW1 180434Z 18014KT 20/13 A2992 RMK A01 T02040134  RH  064%=      5-min Rain = 0
KSW1 180435Z 17012KT 20/13 A2992 RMK A01 T02040133  RH  064%=      5-min Rain = 0
KSW1 180436Z 18013KT 20/13 A2992 RMK A01 T02030133  RH  064%=      5-min Rain = 0
KSW1 180437Z 18014KT 20/13 A2992 RMK A01 T02030133  RH  064%=      5-min Rain = 0
KSW1 180438Z 18014KT 20/13 A2992 RMK A01 T02030134  RH  064%=      5-min Rain = 0
KSW1 180439Z 18014KT 20/13 A2992 RMK A01 T02030134  RH  064%=      5-min Rain = 0
KSW1 180440Z 18015KT 20/13 A2992 RMK A01 T02030133  RH  064%=      5-min Rain = 0
KSW1 180441Z 18015KT 20/13 A2992 RMK A01 T02030134  RH  064%=      5-min Rain = 0
KSW1 180442Z 17017KT 20/13 A2992 RMK A01 T02030134  RH  064%=      5-min Rain = 0
KSW1 180443Z 17014KT 20/13 A2992 RMK A01 T02030134  RH  064%=      5-min Rain = 0
KSW1 180444Z 17014KT 20/13 A2992 RMK A01 T02040133  RH  064%=      5-min Rain = 0
KSW1 180445Z 18013KT 20/13 A2992 RMK A01 T02040134  RH  064%=      5-min Rain = 0
KSW1 180446Z 18014KT 20/13 A2992 RMK A01 T02030133  RH  064%=      5-min Rain = 0
KSW1 180447Z 18014KT 20/13 A2992 RMK A01 T02030134  RH  064%=      5-min Rain = 0
KSW1 180448Z 18013KT 20/13 A2992 RMK A01 T02030134  RH  064%=      5-min Rain = 0
KSW1 180449Z 18012KT 20/13 A2992 RMK A01 T02020134  RH  065%=      5-min Rain = 0
KSW1 180450Z 18014KT 20/13 A2992 RMK A01 T02020134  RH  065%=      5-min Rain = 0
KSW1 180451Z 17013KT 20/13 A2992 RMK A01 T02020134  RH  065%=      5-min Rain = 0
KSW1 180452Z 18014KT 20/13 A2992 RMK A01 T02020133  RH  065%=      5-min Rain = 0
KSW1 180453Z 18014KT 20/13 A2992 RMK A01 T02020134  RH  065%=      5-min Rain = 0
KSW1 180454Z 18014KT 20/13 A2992 RMK A01 T02020134  RH  065%=      5-min Rain = 0
KSW1 180455Z 18013KT 20/13 A2992 RMK A01 T02020133  RH  065%=      5-min Rain = 0
KSW1 180456Z 18014KT 20/13 A2992 RMK A01 T02020133  RH  065%=      5-min Rain = 0
KSW1 180457Z 18012KT 20/13 A2992 RMK A01 T02020134  RH  065%=      5-min Rain = 0
KSW1 180458Z 18014KT 20/13 A2992 RMK A01 T02020134  RH  065%=      5-min Rain = 0
KSW1 180459Z 18013G18KT 20/13 A2992 RMK A01 T02020134  RH  065%=      5-min Rain = 0

Page generated in 0.167 seconds.